<?xml version="1.0" encoding="UTF-8" standalone="no" ?>
<gpx xmlns="http://www.topografix.com/GPX/1/1" xmlns:xsi="http://www.w3.org/2001/XMLSchema-instance" xsi:schemaLocation="http://www.topografix.com/GPX/1/1 http://www.topografix.com/GPX/1/1/gpx.xsd" version="1.1" creator="VisuGPX - https://www.visugpx.com">
  <metadata>
    <name>Le vallon de la vache</name>
    <desc><![CDATA[Vallon de la vache, Vallon du Baou de l'Aigle, Les Crêtes, Vallon de la Figuière]]></desc>
  </metadata>
  <wpt lat="43.37204" lon="5.50127">
    <ele>288.83</ele>
    <name><![CDATA[vallon de la vache allauch]]></name>
    <desc><![CDATA[
]]></desc>
  </wpt>
  <trk>
    <name><![CDATA[vallon de la vache]]></name>
    <trkseg>
      <trkpt lat="43.37222" lon="5.50143">
        <ele>278.33</ele>
        <time>2016-11-08T08:33:20.000Z</time>
      </trkpt>
      <trkpt lat="43.37227" lon="5.50153">
        <ele>278.77</ele>
        <time>2016-11-08T08:38:54.000Z</time>
      </trkpt>
      <trkpt lat="43.37223" lon="5.50164">
        <ele>278.4</ele>
        <time>2016-11-08T08:39:15.000Z</time>
      </trkpt>
      <trkpt lat="43.37228" lon="5.5015">
        <ele>278.2</ele>
        <time>2016-11-08T08:39:45.000Z</time>
      </trkpt>
      <trkpt lat="43.37223" lon="5.50161">
        <ele>277.57</ele>
        <time>2016-11-08T08:41:56.000Z</time>
      </trkpt>
      <trkpt lat="43.37229" lon="5.50151">
        <ele>277.69</ele>
        <time>2016-11-08T08:43:16.000Z</time>
      </trkpt>
      <trkpt lat="43.37227" lon="5.50138">
        <ele>277.64</ele>
        <time>2016-11-08T08:44:22.000Z</time>
      </trkpt>
      <trkpt lat="43.37219" lon="5.50144">
        <ele>277.42</ele>
        <time>2016-11-08T08:45:48.000Z</time>
      </trkpt>
      <trkpt lat="43.37227" lon="5.5014">
        <ele>277.41</ele>
        <time>2016-11-08T08:46:16.000Z</time>
      </trkpt>
      <trkpt lat="43.37218" lon="5.50145">
        <ele>277.29</ele>
        <time>2016-11-08T08:47:57.000Z</time>
      </trkpt>
      <trkpt lat="43.37227" lon="5.50153">
        <ele>276.85</ele>
        <time>2016-11-08T08:52:40.000Z</time>
      </trkpt>
      <trkpt lat="43.37233" lon="5.50164">
        <ele>276.69</ele>
        <time>2016-11-08T08:52:59.000Z</time>
      </trkpt>
      <trkpt lat="43.37238" lon="5.50174">
        <ele>276.67</ele>
        <time>2016-11-08T08:53:10.000Z</time>
      </trkpt>
      <trkpt lat="43.37248" lon="5.50191">
        <ele>276.68</ele>
        <time>2016-11-08T08:53:31.000Z</time>
      </trkpt>
      <trkpt lat="43.37254" lon="5.50208">
        <ele>276.7</ele>
        <time>2016-11-08T08:53:40.000Z</time>
      </trkpt>
      <trkpt lat="43.37252" lon="5.50221">
        <ele>276.71</ele>
        <time>2016-11-08T08:53:49.000Z</time>
      </trkpt>
      <trkpt lat="43.37256" lon="5.50233">
        <ele>276.75</ele>
        <time>2016-11-08T08:53:59.000Z</time>
      </trkpt>
      <trkpt lat="43.37249" lon="5.50242">
        <ele>276.8</ele>
        <time>2016-11-08T08:54:08.000Z</time>
      </trkpt>
      <trkpt lat="43.37243" lon="5.5025">
        <ele>276.85</ele>
        <time>2016-11-08T08:54:17.000Z</time>
      </trkpt>
      <trkpt lat="43.37235" lon="5.50256">
        <ele>276.9</ele>
        <time>2016-11-08T08:54:26.000Z</time>
      </trkpt>
      <trkpt lat="43.37226" lon="5.50261">
        <ele>276.95</ele>
        <time>2016-11-08T08:54:34.000Z</time>
      </trkpt>
      <trkpt lat="43.37219" lon="5.5027">
        <ele>277.06</ele>
        <time>2016-11-08T08:54:46.000Z</time>
      </trkpt>
      <trkpt lat="43.37212" lon="5.50281">
        <ele>277.18</ele>
        <time>2016-11-08T08:54:54.000Z</time>
      </trkpt>
      <trkpt lat="43.37209" lon="5.50293">
        <ele>277.25</ele>
        <time>2016-11-08T08:54:59.000Z</time>
      </trkpt>
      <trkpt lat="43.37208" lon="5.50306">
        <ele>277.39</ele>
        <time>2016-11-08T08:55:08.000Z</time>
      </trkpt>
      <trkpt lat="43.37199" lon="5.50308">
        <ele>277.91</ele>
        <time>2016-11-08T08:55:45.000Z</time>
      </trkpt>
      <trkpt lat="43.37198" lon="5.50321">
        <ele>278.05</ele>
        <time>2016-11-08T08:55:52.000Z</time>
      </trkpt>
      <trkpt lat="43.37194" lon="5.50334">
        <ele>278.19</ele>
        <time>2016-11-08T08:56:00.000Z</time>
      </trkpt>
      <trkpt lat="43.37196" lon="5.50346">
        <ele>278.4</ele>
        <time>2016-11-08T08:56:12.000Z</time>
      </trkpt>
      <trkpt lat="43.372" lon="5.50358">
        <ele>278.55</ele>
        <time>2016-11-08T08:56:21.000Z</time>
      </trkpt>
      <trkpt lat="43.37204" lon="5.50371">
        <ele>278.64</ele>
        <time>2016-11-08T08:56:28.000Z</time>
      </trkpt>
      <trkpt lat="43.37209" lon="5.50382">
        <ele>278.91</ele>
        <time>2016-11-08T08:56:38.000Z</time>
      </trkpt>
      <trkpt lat="43.37217" lon="5.50391">
        <ele>279.18</ele>
        <time>2016-11-08T08:56:46.000Z</time>
      </trkpt>
      <trkpt lat="43.37225" lon="5.50401">
        <ele>279.28</ele>
        <time>2016-11-08T08:56:50.000Z</time>
      </trkpt>
      <trkpt lat="43.37234" lon="5.50403">
        <ele>279.48</ele>
        <time>2016-11-08T08:56:56.000Z</time>
      </trkpt>
      <trkpt lat="43.37242" lon="5.50409">
        <ele>279.6</ele>
        <time>2016-11-08T08:57:00.000Z</time>
      </trkpt>
      <trkpt lat="43.37241" lon="5.50423">
        <ele>279.76</ele>
        <time>2016-11-08T08:57:06.000Z</time>
      </trkpt>
      <trkpt lat="43.37251" lon="5.50427">
        <ele>280.07</ele>
        <time>2016-11-08T08:57:16.000Z</time>
      </trkpt>
      <trkpt lat="43.3726" lon="5.50425">
        <ele>280.33</ele>
        <time>2016-11-08T08:57:22.000Z</time>
      </trkpt>
      <trkpt lat="43.3727" lon="5.5042">
        <ele>280.78</ele>
        <time>2016-11-08T08:57:31.000Z</time>
      </trkpt>
      <trkpt lat="43.37277" lon="5.50412">
        <ele>281.29</ele>
        <time>2016-11-08T08:57:41.000Z</time>
      </trkpt>
      <trkpt lat="43.37283" lon="5.50401">
        <ele>281.7</ele>
        <time>2016-11-08T08:57:50.000Z</time>
      </trkpt>
      <trkpt lat="43.37289" lon="5.50392">
        <ele>282.09</ele>
        <time>2016-11-08T08:58:00.000Z</time>
      </trkpt>
      <trkpt lat="43.37298" lon="5.50386">
        <ele>282.46</ele>
        <time>2016-11-08T08:58:11.000Z</time>
      </trkpt>
      <trkpt lat="43.37307" lon="5.50383">
        <ele>282.79</ele>
        <time>2016-11-08T08:58:21.000Z</time>
      </trkpt>
      <trkpt lat="43.37316" lon="5.50378">
        <ele>282.96</ele>
        <time>2016-11-08T08:58:26.000Z</time>
      </trkpt>
      <trkpt lat="43.37325" lon="5.50378">
        <ele>283.2</ele>
        <time>2016-11-08T08:58:34.000Z</time>
      </trkpt>
      <trkpt lat="43.37332" lon="5.50387">
        <ele>283.51</ele>
        <time>2016-11-08T08:58:43.000Z</time>
      </trkpt>
      <trkpt lat="43.37338" lon="5.50399">
        <ele>283.95</ele>
        <time>2016-11-08T08:58:55.000Z</time>
      </trkpt>
      <trkpt lat="43.37347" lon="5.50403">
        <ele>284.19</ele>
        <time>2016-11-08T08:59:01.000Z</time>
      </trkpt>
      <trkpt lat="43.37357" lon="5.50403">
        <ele>284.71</ele>
        <time>2016-11-08T08:59:13.000Z</time>
      </trkpt>
      <trkpt lat="43.37365" lon="5.50399">
        <ele>284.99</ele>
        <time>2016-11-08T08:59:20.000Z</time>
      </trkpt>
      <trkpt lat="43.37374" lon="5.50392">
        <ele>285.31</ele>
        <time>2016-11-08T08:59:28.000Z</time>
      </trkpt>
      <trkpt lat="43.37384" lon="5.50387">
        <ele>285.65</ele>
        <time>2016-11-08T08:59:37.000Z</time>
      </trkpt>
      <trkpt lat="43.37392" lon="5.50386">
        <ele>286.08</ele>
        <time>2016-11-08T08:59:49.000Z</time>
      </trkpt>
      <trkpt lat="43.37402" lon="5.50388">
        <ele>286.33</ele>
        <time>2016-11-08T08:59:56.000Z</time>
      </trkpt>
      <trkpt lat="43.37412" lon="5.50391">
        <ele>286.63</ele>
        <time>2016-11-08T09:00:05.000Z</time>
      </trkpt>
      <trkpt lat="43.37421" lon="5.50397">
        <ele>286.98</ele>
        <time>2016-11-08T09:00:17.000Z</time>
      </trkpt>
      <trkpt lat="43.37428" lon="5.50404">
        <ele>287.4</ele>
        <time>2016-11-08T09:00:43.000Z</time>
      </trkpt>
      <trkpt lat="43.37435" lon="5.50413">
        <ele>287.6</ele>
        <time>2016-11-08T09:00:50.000Z</time>
      </trkpt>
      <trkpt lat="43.37441" lon="5.50422">
        <ele>287.86</ele>
        <time>2016-11-08T09:01:00.000Z</time>
      </trkpt>
      <trkpt lat="43.37446" lon="5.50433">
        <ele>288.13</ele>
        <time>2016-11-08T09:01:12.000Z</time>
      </trkpt>
      <trkpt lat="43.37455" lon="5.50439">
        <ele>288.34</ele>
        <time>2016-11-08T09:01:24.000Z</time>
      </trkpt>
      <trkpt lat="43.37464" lon="5.50444">
        <ele>288.62</ele>
        <time>2016-11-08T09:01:37.000Z</time>
      </trkpt>
      <trkpt lat="43.37475" lon="5.50442">
        <ele>288.86</ele>
        <time>2016-11-08T09:01:48.000Z</time>
      </trkpt>
      <trkpt lat="43.37484" lon="5.50445">
        <ele>289.02</ele>
        <time>2016-11-08T09:01:56.000Z</time>
      </trkpt>
      <trkpt lat="43.37494" lon="5.50446">
        <ele>289.18</ele>
        <time>2016-11-08T09:02:03.000Z</time>
      </trkpt>
      <trkpt lat="43.37504" lon="5.50445">
        <ele>289.38</ele>
        <time>2016-11-08T09:02:11.000Z</time>
      </trkpt>
      <trkpt lat="43.37514" lon="5.50442">
        <ele>289.57</ele>
        <time>2016-11-08T09:02:18.000Z</time>
      </trkpt>
      <trkpt lat="43.37523" lon="5.50437">
        <ele>289.73</ele>
        <time>2016-11-08T09:02:25.000Z</time>
      </trkpt>
      <trkpt lat="43.37532" lon="5.50436">
        <ele>289.91</ele>
        <time>2016-11-08T09:02:33.000Z</time>
      </trkpt>
      <trkpt lat="43.37541" lon="5.50434">
        <ele>290.05</ele>
        <time>2016-11-08T09:02:40.000Z</time>
      </trkpt>
      <trkpt lat="43.3755" lon="5.50433">
        <ele>290.26</ele>
        <time>2016-11-08T09:02:51.000Z</time>
      </trkpt>
      <trkpt lat="43.37558" lon="5.50424">
        <ele>290.49</ele>
        <time>2016-11-08T09:03:05.000Z</time>
      </trkpt>
      <trkpt lat="43.37566" lon="5.50417">
        <ele>290.61</ele>
        <time>2016-11-08T09:03:13.000Z</time>
      </trkpt>
      <trkpt lat="43.37575" lon="5.50414">
        <ele>290.79</ele>
        <time>2016-11-08T09:03:26.000Z</time>
      </trkpt>
      <trkpt lat="43.37586" lon="5.50415">
        <ele>290.93</ele>
        <time>2016-11-08T09:03:36.000Z</time>
      </trkpt>
      <trkpt lat="43.37596" lon="5.50419">
        <ele>290.98</ele>
        <time>2016-11-08T09:03:41.000Z</time>
      </trkpt>
      <trkpt lat="43.37606" lon="5.5042">
        <ele>291.07</ele>
        <time>2016-11-08T09:03:50.000Z</time>
      </trkpt>
      <trkpt lat="43.37615" lon="5.5042">
        <ele>291.19</ele>
        <time>2016-11-08T09:03:58.000Z</time>
      </trkpt>
      <trkpt lat="43.37626" lon="5.50423">
        <ele>291.34</ele>
        <time>2016-11-08T09:04:08.000Z</time>
      </trkpt>
      <trkpt lat="43.37635" lon="5.50427">
        <ele>291.54</ele>
        <time>2016-11-08T09:04:20.000Z</time>
      </trkpt>
      <trkpt lat="43.37643" lon="5.50432">
        <ele>291.71</ele>
        <time>2016-11-08T09:04:31.000Z</time>
      </trkpt>
      <trkpt lat="43.37653" lon="5.50438">
        <ele>291.83</ele>
        <time>2016-11-08T09:04:38.000Z</time>
      </trkpt>
      <trkpt lat="43.37661" lon="5.50443">
        <ele>291.96</ele>
        <time>2016-11-08T09:04:46.000Z</time>
      </trkpt>
      <trkpt lat="43.37669" lon="5.50452">
        <ele>292.06</ele>
        <time>2016-11-08T09:04:53.000Z</time>
      </trkpt>
      <trkpt lat="43.37679" lon="5.50456">
        <ele>292.22</ele>
        <time>2016-11-08T09:05:05.000Z</time>
      </trkpt>
      <trkpt lat="43.37688" lon="5.5046">
        <ele>292.3</ele>
        <time>2016-11-08T09:05:10.000Z</time>
      </trkpt>
      <trkpt lat="43.37698" lon="5.50463">
        <ele>292.47</ele>
        <time>2016-11-08T09:05:19.000Z</time>
      </trkpt>
      <trkpt lat="43.37708" lon="5.50462">
        <ele>292.62</ele>
        <time>2016-11-08T09:05:27.000Z</time>
      </trkpt>
      <trkpt lat="43.37717" lon="5.50466">
        <ele>292.76</ele>
        <time>2016-11-08T09:05:34.000Z</time>
      </trkpt>
      <trkpt lat="43.37725" lon="5.50472">
        <ele>292.87</ele>
        <time>2016-11-08T09:05:39.000Z</time>
      </trkpt>
      <trkpt lat="43.37734" lon="5.50478">
        <ele>293</ele>
        <time>2016-11-08T09:05:45.000Z</time>
      </trkpt>
      <trkpt lat="43.37742" lon="5.50484">
        <ele>293.16</ele>
        <time>2016-11-08T09:05:54.000Z</time>
      </trkpt>
      <trkpt lat="43.37751" lon="5.5049">
        <ele>293.31</ele>
        <time>2016-11-08T09:06:03.000Z</time>
      </trkpt>
      <trkpt lat="43.37759" lon="5.50494">
        <ele>293.45</ele>
        <time>2016-11-08T09:06:10.000Z</time>
      </trkpt>
      <trkpt lat="43.37767" lon="5.50502">
        <ele>293.59</ele>
        <time>2016-11-08T09:06:17.000Z</time>
      </trkpt>
      <trkpt lat="43.37775" lon="5.50511">
        <ele>293.75</ele>
        <time>2016-11-08T09:06:25.000Z</time>
      </trkpt>
      <trkpt lat="43.37776" lon="5.50524">
        <ele>293.95</ele>
        <time>2016-11-08T09:06:33.000Z</time>
      </trkpt>
      <trkpt lat="43.37777" lon="5.50537">
        <ele>294.3</ele>
        <time>2016-11-08T09:06:47.000Z</time>
      </trkpt>
      <trkpt lat="43.37784" lon="5.50545">
        <ele>294.42</ele>
        <time>2016-11-08T09:06:52.000Z</time>
      </trkpt>
      <trkpt lat="43.37787" lon="5.50557">
        <ele>294.6</ele>
        <time>2016-11-08T09:07:02.000Z</time>
      </trkpt>
      <trkpt lat="43.37787" lon="5.5057">
        <ele>294.7</ele>
        <time>2016-11-08T09:07:09.000Z</time>
      </trkpt>
      <trkpt lat="43.37793" lon="5.50581">
        <ele>294.81</ele>
        <time>2016-11-08T09:07:18.000Z</time>
      </trkpt>
      <trkpt lat="43.37796" lon="5.50593">
        <ele>294.93</ele>
        <time>2016-11-08T09:07:27.000Z</time>
      </trkpt>
      <trkpt lat="43.37795" lon="5.50606">
        <ele>295.04</ele>
        <time>2016-11-08T09:07:35.000Z</time>
      </trkpt>
      <trkpt lat="43.37796" lon="5.50619">
        <ele>295.22</ele>
        <time>2016-11-08T09:07:49.000Z</time>
      </trkpt>
      <trkpt lat="43.37803" lon="5.50629">
        <ele>295.27</ele>
        <time>2016-11-08T09:07:55.000Z</time>
      </trkpt>
      <trkpt lat="43.37799" lon="5.5064">
        <ele>295.29</ele>
        <time>2016-11-08T09:07:57.000Z</time>
      </trkpt>
      <trkpt lat="43.37807" lon="5.50647">
        <ele>295.47</ele>
        <time>2016-11-08T09:08:31.000Z</time>
      </trkpt>
      <trkpt lat="43.37812" lon="5.50658">
        <ele>295.66</ele>
        <time>2016-11-08T09:08:54.000Z</time>
      </trkpt>
      <trkpt lat="43.37816" lon="5.5067">
        <ele>295.76</ele>
        <time>2016-11-08T09:09:06.000Z</time>
      </trkpt>
      <trkpt lat="43.37822" lon="5.50683">
        <ele>295.81</ele>
        <time>2016-11-08T09:09:15.000Z</time>
      </trkpt>
      <trkpt lat="43.3783" lon="5.50693">
        <ele>295.85</ele>
        <time>2016-11-08T09:09:22.000Z</time>
      </trkpt>
      <trkpt lat="43.3784" lon="5.50697">
        <ele>295.91</ele>
        <time>2016-11-08T09:09:32.000Z</time>
      </trkpt>
      <trkpt lat="43.37848" lon="5.50704">
        <ele>295.96</ele>
        <time>2016-11-08T09:09:39.000Z</time>
      </trkpt>
      <trkpt lat="43.37856" lon="5.50711">
        <ele>296.01</ele>
        <time>2016-11-08T09:09:48.000Z</time>
      </trkpt>
      <trkpt lat="43.37865" lon="5.50718">
        <ele>296.06</ele>
        <time>2016-11-08T09:09:54.000Z</time>
      </trkpt>
      <trkpt lat="43.37876" lon="5.50718">
        <ele>296.1</ele>
        <time>2016-11-08T09:09:59.000Z</time>
      </trkpt>
      <trkpt lat="43.37885" lon="5.50723">
        <ele>296.23</ele>
        <time>2016-11-08T09:10:10.000Z</time>
      </trkpt>
      <trkpt lat="43.37894" lon="5.50725">
        <ele>296.33</ele>
        <time>2016-11-08T09:10:18.000Z</time>
      </trkpt>
      <trkpt lat="43.37902" lon="5.50731">
        <ele>296.49</ele>
        <time>2016-11-08T09:10:29.000Z</time>
      </trkpt>
      <trkpt lat="43.37911" lon="5.50734">
        <ele>296.62</ele>
        <time>2016-11-08T09:10:37.000Z</time>
      </trkpt>
      <trkpt lat="43.37923" lon="5.50737">
        <ele>296.73</ele>
        <time>2016-11-08T09:10:43.000Z</time>
      </trkpt>
      <trkpt lat="43.37933" lon="5.5074">
        <ele>296.84</ele>
        <time>2016-11-08T09:10:49.000Z</time>
      </trkpt>
      <trkpt lat="43.37941" lon="5.50733">
        <ele>296.95</ele>
        <time>2016-11-08T09:10:55.000Z</time>
      </trkpt>
      <trkpt lat="43.3795" lon="5.50729">
        <ele>297.08</ele>
        <time>2016-11-08T09:11:02.000Z</time>
      </trkpt>
      <trkpt lat="43.37959" lon="5.50726">
        <ele>297.22</ele>
        <time>2016-11-08T09:11:09.000Z</time>
      </trkpt>
      <trkpt lat="43.37969" lon="5.50726">
        <ele>297.39</ele>
        <time>2016-11-08T09:11:17.000Z</time>
      </trkpt>
      <trkpt lat="43.37979" lon="5.50727">
        <ele>297.67</ele>
        <time>2016-11-08T09:11:27.000Z</time>
      </trkpt>
      <trkpt lat="43.37989" lon="5.50726">
        <ele>297.98</ele>
        <time>2016-11-08T09:11:38.000Z</time>
      </trkpt>
      <trkpt lat="43.37997" lon="5.50722">
        <ele>298.24</ele>
        <time>2016-11-08T09:11:48.000Z</time>
      </trkpt>
      <trkpt lat="43.38006" lon="5.50719">
        <ele>298.41</ele>
        <time>2016-11-08T09:11:54.000Z</time>
      </trkpt>
      <trkpt lat="43.38015" lon="5.50716">
        <ele>298.72</ele>
        <time>2016-11-08T09:12:05.000Z</time>
      </trkpt>
      <trkpt lat="43.38025" lon="5.50714">
        <ele>299.03</ele>
        <time>2016-11-08T09:12:16.000Z</time>
      </trkpt>
      <trkpt lat="43.38031" lon="5.50706">
        <ele>299.87</ele>
        <time>2016-11-08T09:12:55.000Z</time>
      </trkpt>
      <trkpt lat="43.38031" lon="5.50693">
        <ele>302.32</ele>
        <time>2016-11-08T09:13:49.000Z</time>
      </trkpt>
      <trkpt lat="43.38033" lon="5.50705">
        <ele>309.09</ele>
        <time>2016-11-08T09:16:26.000Z</time>
      </trkpt>
      <trkpt lat="43.38042" lon="5.50698">
        <ele>312.48</ele>
        <time>2016-11-08T09:17:23.000Z</time>
      </trkpt>
      <trkpt lat="43.38051" lon="5.50694">
        <ele>313.34</ele>
        <time>2016-11-08T09:17:33.000Z</time>
      </trkpt>
      <trkpt lat="43.38059" lon="5.50688">
        <ele>313.88</ele>
        <time>2016-11-08T09:17:40.000Z</time>
      </trkpt>
      <trkpt lat="43.38067" lon="5.50679">
        <ele>314.58</ele>
        <time>2016-11-08T09:17:50.000Z</time>
      </trkpt>
      <trkpt lat="43.38076" lon="5.50677">
        <ele>315.16</ele>
        <time>2016-11-08T09:17:59.000Z</time>
      </trkpt>
      <trkpt lat="43.38085" lon="5.50675">
        <ele>315.54</ele>
        <time>2016-11-08T09:18:06.000Z</time>
      </trkpt>
      <trkpt lat="43.38094" lon="5.50667">
        <ele>316.55</ele>
        <time>2016-11-08T09:18:26.000Z</time>
      </trkpt>
      <trkpt lat="43.38102" lon="5.50662">
        <ele>316.91</ele>
        <time>2016-11-08T09:18:34.000Z</time>
      </trkpt>
      <trkpt lat="43.38111" lon="5.50657">
        <ele>317.27</ele>
        <time>2016-11-08T09:18:42.000Z</time>
      </trkpt>
      <trkpt lat="43.3812" lon="5.50651">
        <ele>317.56</ele>
        <time>2016-11-08T09:18:49.000Z</time>
      </trkpt>
      <trkpt lat="43.38129" lon="5.50644">
        <ele>318.05</ele>
        <time>2016-11-08T09:19:01.000Z</time>
      </trkpt>
      <trkpt lat="43.38136" lon="5.50637">
        <ele>318.39</ele>
        <time>2016-11-08T09:19:09.000Z</time>
      </trkpt>
      <trkpt lat="43.38146" lon="5.50636">
        <ele>318.86</ele>
        <time>2016-11-08T09:19:20.000Z</time>
      </trkpt>
      <trkpt lat="43.38156" lon="5.5063">
        <ele>319.2</ele>
        <time>2016-11-08T09:19:27.000Z</time>
      </trkpt>
      <trkpt lat="43.38166" lon="5.50629">
        <ele>319.53</ele>
        <time>2016-11-08T09:19:34.000Z</time>
      </trkpt>
      <trkpt lat="43.38174" lon="5.50636">
        <ele>319.8</ele>
        <time>2016-11-08T09:19:40.000Z</time>
      </trkpt>
      <trkpt lat="43.38182" lon="5.50643">
        <ele>320.23</ele>
        <time>2016-11-08T09:19:50.000Z</time>
      </trkpt>
      <trkpt lat="43.38188" lon="5.50651">
        <ele>320.57</ele>
        <time>2016-11-08T09:19:58.000Z</time>
      </trkpt>
      <trkpt lat="43.38193" lon="5.50662">
        <ele>320.9</ele>
        <time>2016-11-08T09:20:08.000Z</time>
      </trkpt>
      <trkpt lat="43.38198" lon="5.50675">
        <ele>321.07</ele>
        <time>2016-11-08T09:20:16.000Z</time>
      </trkpt>
      <trkpt lat="43.38199" lon="5.50689">
        <ele>321.24</ele>
        <time>2016-11-08T09:20:27.000Z</time>
      </trkpt>
      <trkpt lat="43.38202" lon="5.50701">
        <ele>321.32</ele>
        <time>2016-11-08T09:20:37.000Z</time>
      </trkpt>
      <trkpt lat="43.38205" lon="5.50714">
        <ele>321.31</ele>
        <time>2016-11-08T09:20:45.000Z</time>
      </trkpt>
      <trkpt lat="43.38208" lon="5.50725">
        <ele>321.13</ele>
        <time>2016-11-08T09:20:56.000Z</time>
      </trkpt>
      <trkpt lat="43.38217" lon="5.50732">
        <ele>320.89</ele>
        <time>2016-11-08T09:21:05.000Z</time>
      </trkpt>
      <trkpt lat="43.38224" lon="5.5074">
        <ele>320.67</ele>
        <time>2016-11-08T09:21:14.000Z</time>
      </trkpt>
      <trkpt lat="43.38233" lon="5.50744">
        <ele>320.51</ele>
        <time>2016-11-08T09:21:23.000Z</time>
      </trkpt>
      <trkpt lat="43.38242" lon="5.50752">
        <ele>320.4</ele>
        <time>2016-11-08T09:21:31.000Z</time>
      </trkpt>
      <trkpt lat="43.3825" lon="5.50755">
        <ele>320.32</ele>
        <time>2016-11-08T09:21:40.000Z</time>
      </trkpt>
      <trkpt lat="43.38256" lon="5.50765">
        <ele>320.28</ele>
        <time>2016-11-08T09:21:50.000Z</time>
      </trkpt>
      <trkpt lat="43.38261" lon="5.50777">
        <ele>320.25</ele>
        <time>2016-11-08T09:21:59.000Z</time>
      </trkpt>
      <trkpt lat="43.38264" lon="5.5079">
        <ele>320.21</ele>
        <time>2016-11-08T09:22:06.000Z</time>
      </trkpt>
      <trkpt lat="43.38266" lon="5.50803">
        <ele>320.15</ele>
        <time>2016-11-08T09:22:18.000Z</time>
      </trkpt>
      <trkpt lat="43.38268" lon="5.50816">
        <ele>320.1</ele>
        <time>2016-11-08T09:22:26.000Z</time>
      </trkpt>
      <trkpt lat="43.38277" lon="5.50824">
        <ele>320.03</ele>
        <time>2016-11-08T09:22:37.000Z</time>
      </trkpt>
      <trkpt lat="43.38287" lon="5.50825">
        <ele>319.99</ele>
        <time>2016-11-08T09:22:49.000Z</time>
      </trkpt>
      <trkpt lat="43.38294" lon="5.50816">
        <ele>320.01</ele>
        <time>2016-11-08T09:22:58.000Z</time>
      </trkpt>
      <trkpt lat="43.38303" lon="5.50812">
        <ele>320.06</ele>
        <time>2016-11-08T09:23:08.000Z</time>
      </trkpt>
      <trkpt lat="43.3831" lon="5.50803">
        <ele>320.13</ele>
        <time>2016-11-08T09:23:15.000Z</time>
      </trkpt>
      <trkpt lat="43.38317" lon="5.50795">
        <ele>320.21</ele>
        <time>2016-11-08T09:23:23.000Z</time>
      </trkpt>
      <trkpt lat="43.38324" lon="5.50785">
        <ele>320.33</ele>
        <time>2016-11-08T09:23:33.000Z</time>
      </trkpt>
      <trkpt lat="43.38331" lon="5.50778">
        <ele>320.45</ele>
        <time>2016-11-08T09:23:42.000Z</time>
      </trkpt>
      <trkpt lat="43.38342" lon="5.50781">
        <ele>320.53</ele>
        <time>2016-11-08T09:23:50.000Z</time>
      </trkpt>
      <trkpt lat="43.38351" lon="5.50785">
        <ele>320.6</ele>
        <time>2016-11-08T09:23:56.000Z</time>
      </trkpt>
      <trkpt lat="43.3836" lon="5.5079">
        <ele>320.69</ele>
        <time>2016-11-08T09:24:04.000Z</time>
      </trkpt>
      <trkpt lat="43.38368" lon="5.50796">
        <ele>320.78</ele>
        <time>2016-11-08T09:24:14.000Z</time>
      </trkpt>
      <trkpt lat="43.38374" lon="5.50806">
        <ele>320.82</ele>
        <time>2016-11-08T09:24:21.000Z</time>
      </trkpt>
      <trkpt lat="43.38382" lon="5.50814">
        <ele>320.84</ele>
        <time>2016-11-08T09:24:28.000Z</time>
      </trkpt>
      <trkpt lat="43.3839" lon="5.5082">
        <ele>320.87</ele>
        <time>2016-11-08T09:24:37.000Z</time>
      </trkpt>
      <trkpt lat="43.38398" lon="5.50825">
        <ele>320.89</ele>
        <time>2016-11-08T09:24:46.000Z</time>
      </trkpt>
      <trkpt lat="43.38407" lon="5.50831">
        <ele>320.89</ele>
        <time>2016-11-08T09:24:55.000Z</time>
      </trkpt>
      <trkpt lat="43.38416" lon="5.50835">
        <ele>320.9</ele>
        <time>2016-11-08T09:25:05.000Z</time>
      </trkpt>
      <trkpt lat="43.38424" lon="5.50841">
        <ele>320.93</ele>
        <time>2016-11-08T09:25:18.000Z</time>
      </trkpt>
      <trkpt lat="43.38434" lon="5.50843">
        <ele>320.96</ele>
        <time>2016-11-08T09:25:31.000Z</time>
      </trkpt>
      <trkpt lat="43.38442" lon="5.5085">
        <ele>321.01</ele>
        <time>2016-11-08T09:25:43.000Z</time>
      </trkpt>
      <trkpt lat="43.38448" lon="5.50859">
        <ele>321.04</ele>
        <time>2016-11-08T09:25:52.000Z</time>
      </trkpt>
      <trkpt lat="43.38455" lon="5.50869">
        <ele>321.11</ele>
        <time>2016-11-08T09:26:04.000Z</time>
      </trkpt>
      <trkpt lat="43.38463" lon="5.50876">
        <ele>321.17</ele>
        <time>2016-11-08T09:26:15.000Z</time>
      </trkpt>
      <trkpt lat="43.38471" lon="5.50885">
        <ele>321.23</ele>
        <time>2016-11-08T09:26:27.000Z</time>
      </trkpt>
      <trkpt lat="43.38476" lon="5.50894">
        <ele>321.35</ele>
        <time>2016-11-08T09:26:52.000Z</time>
      </trkpt>
      <trkpt lat="43.38486" lon="5.50894">
        <ele>321.53</ele>
        <time>2016-11-08T09:27:05.000Z</time>
      </trkpt>
      <trkpt lat="43.38495" lon="5.50893">
        <ele>321.68</ele>
        <time>2016-11-08T09:27:15.000Z</time>
      </trkpt>
      <trkpt lat="43.38504" lon="5.50892">
        <ele>321.8</ele>
        <time>2016-11-08T09:27:25.000Z</time>
      </trkpt>
      <trkpt lat="43.38514" lon="5.50891">
        <ele>321.94</ele>
        <time>2016-11-08T09:27:35.000Z</time>
      </trkpt>
      <trkpt lat="43.38524" lon="5.5089">
        <ele>322.16</ele>
        <time>2016-11-08T09:27:49.000Z</time>
      </trkpt>
      <trkpt lat="43.38533" lon="5.50886">
        <ele>322.29</ele>
        <time>2016-11-08T09:27:56.000Z</time>
      </trkpt>
      <trkpt lat="43.38544" lon="5.50884">
        <ele>322.51</ele>
        <time>2016-11-08T09:28:08.000Z</time>
      </trkpt>
      <trkpt lat="43.38553" lon="5.50878">
        <ele>322.67</ele>
        <time>2016-11-08T09:28:17.000Z</time>
      </trkpt>
      <trkpt lat="43.38561" lon="5.50875">
        <ele>322.81</ele>
        <time>2016-11-08T09:28:25.000Z</time>
      </trkpt>
      <trkpt lat="43.3857" lon="5.5087">
        <ele>323.03</ele>
        <time>2016-11-08T09:28:38.000Z</time>
      </trkpt>
      <trkpt lat="43.38578" lon="5.50864">
        <ele>323.19</ele>
        <time>2016-11-08T09:28:47.000Z</time>
      </trkpt>
      <trkpt lat="43.38587" lon="5.50858">
        <ele>323.38</ele>
        <time>2016-11-08T09:28:57.000Z</time>
      </trkpt>
      <trkpt lat="43.38596" lon="5.50854">
        <ele>323.52</ele>
        <time>2016-11-08T09:29:04.000Z</time>
      </trkpt>
      <trkpt lat="43.38606" lon="5.50851">
        <ele>323.68</ele>
        <time>2016-11-08T09:29:12.000Z</time>
      </trkpt>
      <trkpt lat="43.38614" lon="5.50844">
        <ele>323.87</ele>
        <time>2016-11-08T09:29:21.000Z</time>
      </trkpt>
      <trkpt lat="43.38623" lon="5.50841">
        <ele>324.07</ele>
        <time>2016-11-08T09:29:30.000Z</time>
      </trkpt>
      <trkpt lat="43.38631" lon="5.50848">
        <ele>324.26</ele>
        <time>2016-11-08T09:29:38.000Z</time>
      </trkpt>
      <trkpt lat="43.3864" lon="5.50854">
        <ele>324.45</ele>
        <time>2016-11-08T09:29:46.000Z</time>
      </trkpt>
      <trkpt lat="43.38649" lon="5.50855">
        <ele>324.72</ele>
        <time>2016-11-08T09:29:56.000Z</time>
      </trkpt>
      <trkpt lat="43.38659" lon="5.50853">
        <ele>324.99</ele>
        <time>2016-11-08T09:30:05.000Z</time>
      </trkpt>
      <trkpt lat="43.38668" lon="5.50855">
        <ele>325.42</ele>
        <time>2016-11-08T09:30:14.000Z</time>
      </trkpt>
      <trkpt lat="43.38678" lon="5.50855">
        <ele>326.01</ele>
        <time>2016-11-08T09:30:24.000Z</time>
      </trkpt>
      <trkpt lat="43.38687" lon="5.50854">
        <ele>326.76</ele>
        <time>2016-11-08T09:30:35.000Z</time>
      </trkpt>
      <trkpt lat="43.38696" lon="5.50856">
        <ele>327.65</ele>
        <time>2016-11-08T09:30:46.000Z</time>
      </trkpt>
      <trkpt lat="43.38705" lon="5.50854">
        <ele>328.57</ele>
        <time>2016-11-08T09:30:56.000Z</time>
      </trkpt>
      <trkpt lat="43.38714" lon="5.5085">
        <ele>329.96</ele>
        <time>2016-11-08T09:31:10.000Z</time>
      </trkpt>
      <trkpt lat="43.38718" lon="5.50839">
        <ele>331.39</ele>
        <time>2016-11-08T09:31:22.000Z</time>
      </trkpt>
      <trkpt lat="43.38716" lon="5.50827">
        <ele>333</ele>
        <time>2016-11-08T09:31:34.000Z</time>
      </trkpt>
      <trkpt lat="43.38716" lon="5.50813">
        <ele>334.8</ele>
        <time>2016-11-08T09:31:46.000Z</time>
      </trkpt>
      <trkpt lat="43.38716" lon="5.50799">
        <ele>339.99</ele>
        <time>2016-11-08T09:32:22.000Z</time>
      </trkpt>
      <trkpt lat="43.38719" lon="5.50788">
        <ele>341.49</ele>
        <time>2016-11-08T09:32:30.000Z</time>
      </trkpt>
      <trkpt lat="43.38724" lon="5.50777">
        <ele>343.36</ele>
        <time>2016-11-08T09:32:41.000Z</time>
      </trkpt>
      <trkpt lat="43.38732" lon="5.5077">
        <ele>345.08</ele>
        <time>2016-11-08T09:32:52.000Z</time>
      </trkpt>
      <trkpt lat="43.38741" lon="5.50769">
        <ele>346.26</ele>
        <time>2016-11-08T09:33:00.000Z</time>
      </trkpt>
      <trkpt lat="43.3875" lon="5.50766">
        <ele>347.35</ele>
        <time>2016-11-08T09:33:08.000Z</time>
      </trkpt>
      <trkpt lat="43.38759" lon="5.50763">
        <ele>348.48</ele>
        <time>2016-11-08T09:33:17.000Z</time>
      </trkpt>
      <trkpt lat="43.38768" lon="5.50761">
        <ele>349.57</ele>
        <time>2016-11-08T09:33:26.000Z</time>
      </trkpt>
      <trkpt lat="43.38778" lon="5.50761">
        <ele>350.82</ele>
        <time>2016-11-08T09:33:37.000Z</time>
      </trkpt>
      <trkpt lat="43.38783" lon="5.5075">
        <ele>352.29</ele>
        <time>2016-11-08T09:34:35.000Z</time>
      </trkpt>
      <trkpt lat="43.38777" lon="5.5076">
        <ele>353.01</ele>
        <time>2016-11-08T09:36:17.000Z</time>
      </trkpt>
      <trkpt lat="43.38786" lon="5.50755">
        <ele>356.08</ele>
        <time>2016-11-08T09:41:02.000Z</time>
      </trkpt>
      <trkpt lat="43.38795" lon="5.50751">
        <ele>356.4</ele>
        <time>2016-11-08T09:41:14.000Z</time>
      </trkpt>
      <trkpt lat="43.38805" lon="5.50749">
        <ele>356.71</ele>
        <time>2016-11-08T09:41:26.000Z</time>
      </trkpt>
      <trkpt lat="43.38813" lon="5.50745">
        <ele>357.16</ele>
        <time>2016-11-08T09:42:04.000Z</time>
      </trkpt>
      <trkpt lat="43.38821" lon="5.50751">
        <ele>357.87</ele>
        <time>2016-11-08T09:42:40.000Z</time>
      </trkpt>
      <trkpt lat="43.38829" lon="5.50758">
        <ele>358.19</ele>
        <time>2016-11-08T09:42:53.000Z</time>
      </trkpt>
      <trkpt lat="43.38837" lon="5.50766">
        <ele>358.45</ele>
        <time>2016-11-08T09:43:05.000Z</time>
      </trkpt>
      <trkpt lat="43.38842" lon="5.50776">
        <ele>358.78</ele>
        <time>2016-11-08T09:43:26.000Z</time>
      </trkpt>
      <trkpt lat="43.38852" lon="5.50778">
        <ele>358.89</ele>
        <time>2016-11-08T09:43:33.000Z</time>
      </trkpt>
      <trkpt lat="43.38862" lon="5.50778">
        <ele>359.02</ele>
        <time>2016-11-08T09:43:42.000Z</time>
      </trkpt>
      <trkpt lat="43.38865" lon="5.5079">
        <ele>359.11</ele>
        <time>2016-11-08T09:43:52.000Z</time>
      </trkpt>
      <trkpt lat="43.38873" lon="5.50798">
        <ele>359.36</ele>
        <time>2016-11-08T09:44:25.000Z</time>
      </trkpt>
      <trkpt lat="43.3888" lon="5.50805">
        <ele>359.47</ele>
        <time>2016-11-08T09:44:35.000Z</time>
      </trkpt>
      <trkpt lat="43.38887" lon="5.50813">
        <ele>359.57</ele>
        <time>2016-11-08T09:44:45.000Z</time>
      </trkpt>
      <trkpt lat="43.38894" lon="5.50823">
        <ele>359.64</ele>
        <time>2016-11-08T09:44:52.000Z</time>
      </trkpt>
      <trkpt lat="43.38897" lon="5.50837">
        <ele>359.78</ele>
        <time>2016-11-08T09:45:15.000Z</time>
      </trkpt>
      <trkpt lat="43.38898" lon="5.50851">
        <ele>359.88</ele>
        <time>2016-11-08T09:45:26.000Z</time>
      </trkpt>
      <trkpt lat="43.389" lon="5.50863">
        <ele>359.96</ele>
        <time>2016-11-08T09:45:35.000Z</time>
      </trkpt>
      <trkpt lat="43.38903" lon="5.50875">
        <ele>360.04</ele>
        <time>2016-11-08T09:45:47.000Z</time>
      </trkpt>
      <trkpt lat="43.38907" lon="5.50887">
        <ele>360.08</ele>
        <time>2016-11-08T09:45:58.000Z</time>
      </trkpt>
      <trkpt lat="43.38913" lon="5.50896">
        <ele>360.13</ele>
        <time>2016-11-08T09:46:08.000Z</time>
      </trkpt>
      <trkpt lat="43.38922" lon="5.50901">
        <ele>360.23</ele>
        <time>2016-11-08T09:46:22.000Z</time>
      </trkpt>
      <trkpt lat="43.38931" lon="5.50906">
        <ele>360.36</ele>
        <time>2016-11-08T09:46:32.000Z</time>
      </trkpt>
      <trkpt lat="43.3894" lon="5.50909">
        <ele>360.49</ele>
        <time>2016-11-08T09:46:40.000Z</time>
      </trkpt>
      <trkpt lat="43.3895" lon="5.50909">
        <ele>360.64</ele>
        <time>2016-11-08T09:46:48.000Z</time>
      </trkpt>
      <trkpt lat="43.38958" lon="5.50915">
        <ele>361.14</ele>
        <time>2016-11-08T09:47:02.000Z</time>
      </trkpt>
      <trkpt lat="43.38967" lon="5.5092">
        <ele>361.88</ele>
        <time>2016-11-08T09:47:13.000Z</time>
      </trkpt>
      <trkpt lat="43.38977" lon="5.50922">
        <ele>362.52</ele>
        <time>2016-11-08T09:47:21.000Z</time>
      </trkpt>
      <trkpt lat="43.38986" lon="5.50925">
        <ele>364.01</ele>
        <time>2016-11-08T09:47:35.000Z</time>
      </trkpt>
      <trkpt lat="43.38995" lon="5.50924">
        <ele>364.75</ele>
        <time>2016-11-08T09:47:42.000Z</time>
      </trkpt>
      <trkpt lat="43.39004" lon="5.50921">
        <ele>365.73</ele>
        <time>2016-11-08T09:47:51.000Z</time>
      </trkpt>
      <trkpt lat="43.39013" lon="5.50917">
        <ele>366.7</ele>
        <time>2016-11-08T09:48:00.000Z</time>
      </trkpt>
      <trkpt lat="43.39021" lon="5.50923">
        <ele>368.2</ele>
        <time>2016-11-08T09:48:17.000Z</time>
      </trkpt>
      <trkpt lat="43.39022" lon="5.50935">
        <ele>370.2</ele>
        <time>2016-11-08T09:48:45.000Z</time>
      </trkpt>
      <trkpt lat="43.39014" lon="5.50942">
        <ele>371.61</ele>
        <time>2016-11-08T09:50:03.000Z</time>
      </trkpt>
      <trkpt lat="43.39006" lon="5.50946">
        <ele>375.26</ele>
        <time>2016-11-08T09:51:19.000Z</time>
      </trkpt>
      <trkpt lat="43.38998" lon="5.50953">
        <ele>376.53</ele>
        <time>2016-11-08T09:51:38.000Z</time>
      </trkpt>
      <trkpt lat="43.38991" lon="5.50959">
        <ele>377.69</ele>
        <time>2016-11-08T09:51:58.000Z</time>
      </trkpt>
      <trkpt lat="43.38982" lon="5.5096">
        <ele>378.58</ele>
        <time>2016-11-08T09:52:10.000Z</time>
      </trkpt>
      <trkpt lat="43.38972" lon="5.50962">
        <ele>379.45</ele>
        <time>2016-11-08T09:52:34.000Z</time>
      </trkpt>
      <trkpt lat="43.38963" lon="5.50967">
        <ele>380.29</ele>
        <time>2016-11-08T09:53:01.000Z</time>
      </trkpt>
      <trkpt lat="43.38954" lon="5.50971">
        <ele>381.12</ele>
        <time>2016-11-08T09:53:18.000Z</time>
      </trkpt>
      <trkpt lat="43.38946" lon="5.50976">
        <ele>381.77</ele>
        <time>2016-11-08T09:53:30.000Z</time>
      </trkpt>
      <trkpt lat="43.38937" lon="5.50975">
        <ele>382.3</ele>
        <time>2016-11-08T09:53:42.000Z</time>
      </trkpt>
      <trkpt lat="43.38926" lon="5.50974">
        <ele>382.83</ele>
        <time>2016-11-08T09:53:57.000Z</time>
      </trkpt>
      <trkpt lat="43.38919" lon="5.50966">
        <ele>383.4</ele>
        <time>2016-11-08T09:54:19.000Z</time>
      </trkpt>
      <trkpt lat="43.38909" lon="5.50962">
        <ele>383.64</ele>
        <time>2016-11-08T09:54:27.000Z</time>
      </trkpt>
      <trkpt lat="43.38898" lon="5.50957">
        <ele>384.07</ele>
        <time>2016-11-08T09:54:40.000Z</time>
      </trkpt>
      <trkpt lat="43.3889" lon="5.50953">
        <ele>384.33</ele>
        <time>2016-11-08T09:54:47.000Z</time>
      </trkpt>
      <trkpt lat="43.38882" lon="5.50945">
        <ele>384.86</ele>
        <time>2016-11-08T09:55:00.000Z</time>
      </trkpt>
      <trkpt lat="43.38874" lon="5.50937">
        <ele>385.37</ele>
        <time>2016-11-08T09:55:12.000Z</time>
      </trkpt>
      <trkpt lat="43.38868" lon="5.50926">
        <ele>385.72</ele>
        <time>2016-11-08T09:55:20.000Z</time>
      </trkpt>
      <trkpt lat="43.38861" lon="5.50918">
        <ele>386.22</ele>
        <time>2016-11-08T09:55:32.000Z</time>
      </trkpt>
      <trkpt lat="43.38855" lon="5.50909">
        <ele>386.85</ele>
        <time>2016-11-08T09:55:46.000Z</time>
      </trkpt>
      <trkpt lat="43.38852" lon="5.50896">
        <ele>387.18</ele>
        <time>2016-11-08T09:55:53.000Z</time>
      </trkpt>
      <trkpt lat="43.38852" lon="5.50884">
        <ele>387.72</ele>
        <time>2016-11-08T09:56:04.000Z</time>
      </trkpt>
      <trkpt lat="43.38849" lon="5.50872">
        <ele>388.27</ele>
        <time>2016-11-08T09:56:13.000Z</time>
      </trkpt>
      <trkpt lat="43.38846" lon="5.50859">
        <ele>388.98</ele>
        <time>2016-11-08T09:56:22.000Z</time>
      </trkpt>
      <trkpt lat="43.38839" lon="5.50868">
        <ele>390.52</ele>
        <time>2016-11-08T09:56:42.000Z</time>
      </trkpt>
      <trkpt lat="43.3884" lon="5.50881">
        <ele>391.6</ele>
        <time>2016-11-08T09:56:57.000Z</time>
      </trkpt>
      <trkpt lat="43.38842" lon="5.50894">
        <ele>392.55</ele>
        <time>2016-11-08T09:57:13.000Z</time>
      </trkpt>
      <trkpt lat="43.38843" lon="5.50907">
        <ele>393.12</ele>
        <time>2016-11-08T09:57:24.000Z</time>
      </trkpt>
      <trkpt lat="43.38845" lon="5.5092">
        <ele>393.66</ele>
        <time>2016-11-08T09:57:36.000Z</time>
      </trkpt>
      <trkpt lat="43.38852" lon="5.50928">
        <ele>394</ele>
        <time>2016-11-08T09:57:44.000Z</time>
      </trkpt>
      <trkpt lat="43.3885" lon="5.5094">
        <ele>394.51</ele>
        <time>2016-11-08T09:57:57.000Z</time>
      </trkpt>
      <trkpt lat="43.38847" lon="5.50952">
        <ele>394.83</ele>
        <time>2016-11-08T09:58:07.000Z</time>
      </trkpt>
      <trkpt lat="43.38844" lon="5.50964">
        <ele>395.26</ele>
        <time>2016-11-08T09:58:22.000Z</time>
      </trkpt>
      <trkpt lat="43.38839" lon="5.50975">
        <ele>395.67</ele>
        <time>2016-11-08T09:58:38.000Z</time>
      </trkpt>
      <trkpt lat="43.38837" lon="5.50989">
        <ele>395.87</ele>
        <time>2016-11-08T09:58:46.000Z</time>
      </trkpt>
      <trkpt lat="43.38836" lon="5.51001">
        <ele>396.13</ele>
        <time>2016-11-08T09:58:56.000Z</time>
      </trkpt>
      <trkpt lat="43.38834" lon="5.51014">
        <ele>396.79</ele>
        <time>2016-11-08T09:59:20.000Z</time>
      </trkpt>
      <trkpt lat="43.38833" lon="5.51027">
        <ele>397.27</ele>
        <time>2016-11-08T09:59:35.000Z</time>
      </trkpt>
      <trkpt lat="43.38841" lon="5.51034">
        <ele>397.67</ele>
        <time>2016-11-08T09:59:46.000Z</time>
      </trkpt>
      <trkpt lat="43.38847" lon="5.51044">
        <ele>398.19</ele>
        <time>2016-11-08T09:59:59.000Z</time>
      </trkpt>
      <trkpt lat="43.38856" lon="5.51049">
        <ele>398.68</ele>
        <time>2016-11-08T10:00:10.000Z</time>
      </trkpt>
      <trkpt lat="43.38865" lon="5.51054">
        <ele>399.57</ele>
        <time>2016-11-08T10:00:42.000Z</time>
      </trkpt>
      <trkpt lat="43.38873" lon="5.51059">
        <ele>401.53</ele>
        <time>2016-11-08T10:01:55.000Z</time>
      </trkpt>
      <trkpt lat="43.38881" lon="5.51066">
        <ele>402.35</ele>
        <time>2016-11-08T10:02:12.000Z</time>
      </trkpt>
      <trkpt lat="43.38888" lon="5.51075">
        <ele>402.93</ele>
        <time>2016-11-08T10:02:23.000Z</time>
      </trkpt>
      <trkpt lat="43.38895" lon="5.51082">
        <ele>403.72</ele>
        <time>2016-11-08T10:02:39.000Z</time>
      </trkpt>
      <trkpt lat="43.38904" lon="5.5109">
        <ele>404.11</ele>
        <time>2016-11-08T10:02:45.000Z</time>
      </trkpt>
      <trkpt lat="43.38911" lon="5.51098">
        <ele>405.26</ele>
        <time>2016-11-08T10:03:07.000Z</time>
      </trkpt>
      <trkpt lat="43.38916" lon="5.51113">
        <ele>406.03</ele>
        <time>2016-11-08T10:03:22.000Z</time>
      </trkpt>
      <trkpt lat="43.38917" lon="5.51127">
        <ele>406.58</ele>
        <time>2016-11-08T10:03:33.000Z</time>
      </trkpt>
      <trkpt lat="43.38912" lon="5.51137">
        <ele>406.89</ele>
        <time>2016-11-08T10:03:38.000Z</time>
      </trkpt>
      <trkpt lat="43.38903" lon="5.51142">
        <ele>407.72</ele>
        <time>2016-11-08T10:03:58.000Z</time>
      </trkpt>
      <trkpt lat="43.38895" lon="5.5115">
        <ele>409.23</ele>
        <time>2016-11-08T10:04:18.000Z</time>
      </trkpt>
      <trkpt lat="43.38888" lon="5.5116">
        <ele>410</ele>
        <time>2016-11-08T10:04:25.000Z</time>
      </trkpt>
      <trkpt lat="43.3888" lon="5.51166">
        <ele>411.11</ele>
        <time>2016-11-08T10:04:34.000Z</time>
      </trkpt>
      <trkpt lat="43.38873" lon="5.51175">
        <ele>412.42</ele>
        <time>2016-11-08T10:04:44.000Z</time>
      </trkpt>
      <trkpt lat="43.38868" lon="5.51185">
        <ele>414</ele>
        <time>2016-11-08T10:04:58.000Z</time>
      </trkpt>
      <trkpt lat="43.38859" lon="5.51193">
        <ele>414.95</ele>
        <time>2016-11-08T10:05:06.000Z</time>
      </trkpt>
      <trkpt lat="43.38852" lon="5.51201">
        <ele>416.26</ele>
        <time>2016-11-08T10:05:17.000Z</time>
      </trkpt>
      <trkpt lat="43.38845" lon="5.5121">
        <ele>417.8</ele>
        <time>2016-11-08T10:05:30.000Z</time>
      </trkpt>
      <trkpt lat="43.38837" lon="5.51217">
        <ele>418.6</ele>
        <time>2016-11-08T10:05:37.000Z</time>
      </trkpt>
      <trkpt lat="43.38828" lon="5.51221">
        <ele>419.4</ele>
        <time>2016-11-08T10:05:44.000Z</time>
      </trkpt>
      <trkpt lat="43.38818" lon="5.51225">
        <ele>420.52</ele>
        <time>2016-11-08T10:05:54.000Z</time>
      </trkpt>
      <trkpt lat="43.3881" lon="5.51229">
        <ele>421.55</ele>
        <time>2016-11-08T10:06:04.000Z</time>
      </trkpt>
      <trkpt lat="43.388" lon="5.51231">
        <ele>422.23</ele>
        <time>2016-11-08T10:06:11.000Z</time>
      </trkpt>
      <trkpt lat="43.38791" lon="5.51238">
        <ele>423.76</ele>
        <time>2016-11-08T10:06:27.000Z</time>
      </trkpt>
      <trkpt lat="43.38796" lon="5.51249">
        <ele>425.51</ele>
        <time>2016-11-08T10:06:43.000Z</time>
      </trkpt>
      <trkpt lat="43.38805" lon="5.51253">
        <ele>427.01</ele>
        <time>2016-11-08T10:06:55.000Z</time>
      </trkpt>
      <trkpt lat="43.38814" lon="5.51257">
        <ele>429.49</ele>
        <time>2016-11-08T10:07:14.000Z</time>
      </trkpt>
      <trkpt lat="43.38821" lon="5.51265">
        <ele>431.76</ele>
        <time>2016-11-08T10:07:37.000Z</time>
      </trkpt>
      <trkpt lat="43.38829" lon="5.51272">
        <ele>434.88</ele>
        <time>2016-11-08T10:08:10.000Z</time>
      </trkpt>
      <trkpt lat="43.38826" lon="5.51284">
        <ele>438.02</ele>
        <time>2016-11-08T10:09:41.000Z</time>
      </trkpt>
      <trkpt lat="43.38836" lon="5.51285">
        <ele>448.65</ele>
        <time>2016-11-08T10:12:49.000Z</time>
      </trkpt>
      <trkpt lat="43.38845" lon="5.51284">
        <ele>450.22</ele>
        <time>2016-11-08T10:13:00.000Z</time>
      </trkpt>
      <trkpt lat="43.38854" lon="5.51285">
        <ele>451.47</ele>
        <time>2016-11-08T10:13:10.000Z</time>
      </trkpt>
      <trkpt lat="43.38863" lon="5.51286">
        <ele>453</ele>
        <time>2016-11-08T10:13:24.000Z</time>
      </trkpt>
      <trkpt lat="43.38873" lon="5.51285">
        <ele>454.3</ele>
        <time>2016-11-08T10:13:37.000Z</time>
      </trkpt>
      <trkpt lat="43.38882" lon="5.51282">
        <ele>455.6</ele>
        <time>2016-11-08T10:13:51.000Z</time>
      </trkpt>
      <trkpt lat="43.38891" lon="5.51278">
        <ele>456.59</ele>
        <time>2016-11-08T10:14:03.000Z</time>
      </trkpt>
      <trkpt lat="43.38901" lon="5.51278">
        <ele>458.24</ele>
        <time>2016-11-08T10:14:30.000Z</time>
      </trkpt>
      <trkpt lat="43.3891" lon="5.51278">
        <ele>459.19</ele>
        <time>2016-11-08T10:14:42.000Z</time>
      </trkpt>
      <trkpt lat="43.38919" lon="5.51281">
        <ele>459.84</ele>
        <time>2016-11-08T10:14:51.000Z</time>
      </trkpt>
      <trkpt lat="43.38929" lon="5.51281">
        <ele>460.91</ele>
        <time>2016-11-08T10:15:06.000Z</time>
      </trkpt>
      <trkpt lat="43.38939" lon="5.51284">
        <ele>462.06</ele>
        <time>2016-11-08T10:15:22.000Z</time>
      </trkpt>
      <trkpt lat="43.38945" lon="5.51276">
        <ele>465.8</ele>
        <time>2016-11-08T10:17:06.000Z</time>
      </trkpt>
      <trkpt lat="43.38954" lon="5.51279">
        <ele>466.7</ele>
        <time>2016-11-08T10:17:19.000Z</time>
      </trkpt>
      <trkpt lat="43.38964" lon="5.51281">
        <ele>467.2</ele>
        <time>2016-11-08T10:17:27.000Z</time>
      </trkpt>
      <trkpt lat="43.38971" lon="5.51288">
        <ele>468.29</ele>
        <time>2016-11-08T10:17:47.000Z</time>
      </trkpt>
      <trkpt lat="43.38977" lon="5.51297">
        <ele>468.91</ele>
        <time>2016-11-08T10:17:59.000Z</time>
      </trkpt>
      <trkpt lat="43.38981" lon="5.51309">
        <ele>469.6</ele>
        <time>2016-11-08T10:18:14.000Z</time>
      </trkpt>
      <trkpt lat="43.38988" lon="5.51317">
        <ele>470.77</ele>
        <time>2016-11-08T10:18:37.000Z</time>
      </trkpt>
      <trkpt lat="43.38996" lon="5.51325">
        <ele>472.04</ele>
        <time>2016-11-08T10:18:59.000Z</time>
      </trkpt>
      <trkpt lat="43.39" lon="5.51337">
        <ele>472.89</ele>
        <time>2016-11-08T10:19:14.000Z</time>
      </trkpt>
      <trkpt lat="43.39002" lon="5.51349">
        <ele>473.64</ele>
        <time>2016-11-08T10:19:28.000Z</time>
      </trkpt>
      <trkpt lat="43.39002" lon="5.51362">
        <ele>474.42</ele>
        <time>2016-11-08T10:19:44.000Z</time>
      </trkpt>
      <trkpt lat="43.39005" lon="5.51374">
        <ele>475.08</ele>
        <time>2016-11-08T10:19:58.000Z</time>
      </trkpt>
      <trkpt lat="43.39009" lon="5.51387">
        <ele>475.7</ele>
        <time>2016-11-08T10:20:12.000Z</time>
      </trkpt>
      <trkpt lat="43.39012" lon="5.51398">
        <ele>476.06</ele>
        <time>2016-11-08T10:20:20.000Z</time>
      </trkpt>
      <trkpt lat="43.39015" lon="5.51411">
        <ele>476.42</ele>
        <time>2016-11-08T10:20:27.000Z</time>
      </trkpt>
      <trkpt lat="43.39014" lon="5.51423">
        <ele>477.23</ele>
        <time>2016-11-08T10:20:38.000Z</time>
      </trkpt>
      <trkpt lat="43.39014" lon="5.51436">
        <ele>478.43</ele>
        <time>2016-11-08T10:20:52.000Z</time>
      </trkpt>
      <trkpt lat="43.39014" lon="5.5145">
        <ele>479.28</ele>
        <time>2016-11-08T10:21:02.000Z</time>
      </trkpt>
      <trkpt lat="43.39019" lon="5.51461">
        <ele>480.31</ele>
        <time>2016-11-08T10:21:14.000Z</time>
      </trkpt>
      <trkpt lat="43.39024" lon="5.51472">
        <ele>481.24</ele>
        <time>2016-11-08T10:21:23.000Z</time>
      </trkpt>
      <trkpt lat="43.39027" lon="5.51484">
        <ele>482.55</ele>
        <time>2016-11-08T10:21:35.000Z</time>
      </trkpt>
      <trkpt lat="43.39033" lon="5.51496">
        <ele>483.71</ele>
        <time>2016-11-08T10:21:45.000Z</time>
      </trkpt>
      <trkpt lat="43.39039" lon="5.51505">
        <ele>484.99</ele>
        <time>2016-11-08T10:21:55.000Z</time>
      </trkpt>
      <trkpt lat="43.39044" lon="5.51517">
        <ele>487.06</ele>
        <time>2016-11-08T10:22:10.000Z</time>
      </trkpt>
      <trkpt lat="43.39045" lon="5.51529">
        <ele>488.85</ele>
        <time>2016-11-08T10:22:23.000Z</time>
      </trkpt>
      <trkpt lat="43.39048" lon="5.51543">
        <ele>490.04</ele>
        <time>2016-11-08T10:22:32.000Z</time>
      </trkpt>
      <trkpt lat="43.39055" lon="5.51553">
        <ele>491.64</ele>
        <time>2016-11-08T10:22:45.000Z</time>
      </trkpt>
      <trkpt lat="43.39056" lon="5.51566">
        <ele>493.05</ele>
        <time>2016-11-08T10:22:56.000Z</time>
      </trkpt>
      <trkpt lat="43.39065" lon="5.51566">
        <ele>496.55</ele>
        <time>2016-11-08T10:23:51.000Z</time>
      </trkpt>
      <trkpt lat="43.39068" lon="5.51579">
        <ele>498.53</ele>
        <time>2016-11-08T10:24:10.000Z</time>
      </trkpt>
      <trkpt lat="43.39069" lon="5.51592">
        <ele>499.7</ele>
        <time>2016-11-08T10:24:18.000Z</time>
      </trkpt>
      <trkpt lat="43.39072" lon="5.51605">
        <ele>501.51</ele>
        <time>2016-11-08T10:24:32.000Z</time>
      </trkpt>
      <trkpt lat="43.39077" lon="5.51617">
        <ele>502.95</ele>
        <time>2016-11-08T10:24:50.000Z</time>
      </trkpt>
      <trkpt lat="43.39081" lon="5.51628">
        <ele>504.52</ele>
        <time>2016-11-08T10:25:27.000Z</time>
      </trkpt>
      <trkpt lat="43.39086" lon="5.51638">
        <ele>506.67</ele>
        <time>2016-11-08T10:25:54.000Z</time>
      </trkpt>
      <trkpt lat="43.39086" lon="5.51651">
        <ele>507.82</ele>
        <time>2016-11-08T10:26:03.000Z</time>
      </trkpt>
      <trkpt lat="43.39091" lon="5.51663">
        <ele>508.95</ele>
        <time>2016-11-08T10:26:13.000Z</time>
      </trkpt>
      <trkpt lat="43.39092" lon="5.51675">
        <ele>509.76</ele>
        <time>2016-11-08T10:26:21.000Z</time>
      </trkpt>
      <trkpt lat="43.39097" lon="5.51686">
        <ele>510.24</ele>
        <time>2016-11-08T10:26:26.000Z</time>
      </trkpt>
      <trkpt lat="43.39102" lon="5.51697">
        <ele>510.8</ele>
        <time>2016-11-08T10:26:32.000Z</time>
      </trkpt>
      <trkpt lat="43.39106" lon="5.51709">
        <ele>511.48</ele>
        <time>2016-11-08T10:26:40.000Z</time>
      </trkpt>
      <trkpt lat="43.39109" lon="5.51721">
        <ele>512.15</ele>
        <time>2016-11-08T10:26:48.000Z</time>
      </trkpt>
      <trkpt lat="43.39115" lon="5.51732">
        <ele>512.84</ele>
        <time>2016-11-08T10:26:57.000Z</time>
      </trkpt>
      <trkpt lat="43.39121" lon="5.51741">
        <ele>513.45</ele>
        <time>2016-11-08T10:27:05.000Z</time>
      </trkpt>
      <trkpt lat="43.39127" lon="5.51753">
        <ele>514.48</ele>
        <time>2016-11-08T10:27:24.000Z</time>
      </trkpt>
      <trkpt lat="43.39134" lon="5.51761">
        <ele>515.11</ele>
        <time>2016-11-08T10:27:33.000Z</time>
      </trkpt>
      <trkpt lat="43.39142" lon="5.51767">
        <ele>515.79</ele>
        <time>2016-11-08T10:27:44.000Z</time>
      </trkpt>
      <trkpt lat="43.39139" lon="5.51779">
        <ele>516.16</ele>
        <time>2016-11-08T10:27:58.000Z</time>
      </trkpt>
      <trkpt lat="43.39148" lon="5.51785">
        <ele>517.35</ele>
        <time>2016-11-08T10:29:15.000Z</time>
      </trkpt>
      <trkpt lat="43.39158" lon="5.51786">
        <ele>517.7</ele>
        <time>2016-11-08T10:29:21.000Z</time>
      </trkpt>
      <trkpt lat="43.39166" lon="5.51792">
        <ele>518.22</ele>
        <time>2016-11-08T10:29:30.000Z</time>
      </trkpt>
      <trkpt lat="43.39173" lon="5.51801">
        <ele>518.72</ele>
        <time>2016-11-08T10:29:40.000Z</time>
      </trkpt>
      <trkpt lat="43.39179" lon="5.51809">
        <ele>519.17</ele>
        <time>2016-11-08T10:29:50.000Z</time>
      </trkpt>
      <trkpt lat="43.39185" lon="5.51819">
        <ele>519.77</ele>
        <time>2016-11-08T10:30:05.000Z</time>
      </trkpt>
      <trkpt lat="43.3919" lon="5.5183">
        <ele>520.29</ele>
        <time>2016-11-08T10:30:19.000Z</time>
      </trkpt>
      <trkpt lat="43.3919" lon="5.51843">
        <ele>520.98</ele>
        <time>2016-11-08T10:30:48.000Z</time>
      </trkpt>
      <trkpt lat="43.39198" lon="5.51851">
        <ele>521.39</ele>
        <time>2016-11-08T10:31:01.000Z</time>
      </trkpt>
      <trkpt lat="43.39207" lon="5.51855">
        <ele>521.58</ele>
        <time>2016-11-08T10:31:07.000Z</time>
      </trkpt>
      <trkpt lat="43.39216" lon="5.51855">
        <ele>521.94</ele>
        <time>2016-11-08T10:31:18.000Z</time>
      </trkpt>
      <trkpt lat="43.39225" lon="5.51855">
        <ele>522.38</ele>
        <time>2016-11-08T10:31:32.000Z</time>
      </trkpt>
      <trkpt lat="43.39235" lon="5.51856">
        <ele>523.15</ele>
        <time>2016-11-08T10:32:01.000Z</time>
      </trkpt>
      <trkpt lat="43.39245" lon="5.51854">
        <ele>523.34</ele>
        <time>2016-11-08T10:32:12.000Z</time>
      </trkpt>
      <trkpt lat="43.39253" lon="5.5185">
        <ele>523.62</ele>
        <time>2016-11-08T10:32:39.000Z</time>
      </trkpt>
      <trkpt lat="43.39263" lon="5.51853">
        <ele>523.83</ele>
        <time>2016-11-08T10:32:54.000Z</time>
      </trkpt>
      <trkpt lat="43.39272" lon="5.51853">
        <ele>524</ele>
        <time>2016-11-08T10:33:06.000Z</time>
      </trkpt>
      <trkpt lat="43.39282" lon="5.51854">
        <ele>524.16</ele>
        <time>2016-11-08T10:33:17.999Z</time>
      </trkpt>
      <trkpt lat="43.39291" lon="5.51852">
        <ele>524.41</ele>
        <time>2016-11-08T10:33:33.999Z</time>
      </trkpt>
      <trkpt lat="43.39301" lon="5.5185">
        <ele>524.58</ele>
        <time>2016-11-08T10:33:44.999Z</time>
      </trkpt>
      <trkpt lat="43.39311" lon="5.51849">
        <ele>524.79</ele>
        <time>2016-11-08T10:33:57.999Z</time>
      </trkpt>
      <trkpt lat="43.3932" lon="5.51848">
        <ele>524.97</ele>
        <time>2016-11-08T10:34:09.999Z</time>
      </trkpt>
      <trkpt lat="43.39329" lon="5.51848">
        <ele>525.22</ele>
        <time>2016-11-08T10:34:27.999Z</time>
      </trkpt>
      <trkpt lat="43.39339" lon="5.51847">
        <ele>525.54</ele>
        <time>2016-11-08T10:34:53.999Z</time>
      </trkpt>
      <trkpt lat="43.39349" lon="5.51846">
        <ele>525.89</ele>
        <time>2016-11-08T10:35:13.999Z</time>
      </trkpt>
      <trkpt lat="43.39358" lon="5.51847">
        <ele>526.1</ele>
        <time>2016-11-08T10:35:27.999Z</time>
      </trkpt>
      <trkpt lat="43.39367" lon="5.51849">
        <ele>526.37</ele>
        <time>2016-11-08T10:35:41.999Z</time>
      </trkpt>
      <trkpt lat="43.39377" lon="5.5185">
        <ele>526.73</ele>
        <time>2016-11-08T10:35:55.999Z</time>
      </trkpt>
      <trkpt lat="43.39386" lon="5.51846">
        <ele>527.08</ele>
        <time>2016-11-08T10:36:08.999Z</time>
      </trkpt>
      <trkpt lat="43.39394" lon="5.51849">
        <ele>527.5</ele>
        <time>2016-11-08T10:36:22.999Z</time>
      </trkpt>
      <trkpt lat="43.39404" lon="5.5185">
        <ele>527.92</ele>
        <time>2016-11-08T10:36:35.999Z</time>
      </trkpt>
      <trkpt lat="43.39412" lon="5.51849">
        <ele>528.52</ele>
        <time>2016-11-08T10:36:51.999Z</time>
      </trkpt>
      <trkpt lat="43.39422" lon="5.51845">
        <ele>529.45</ele>
        <time>2016-11-08T10:37:17.999Z</time>
      </trkpt>
      <trkpt lat="43.39431" lon="5.51845">
        <ele>530.3</ele>
        <time>2016-11-08T10:37:29.999Z</time>
      </trkpt>
      <trkpt lat="43.39441" lon="5.51843">
        <ele>531.85</ele>
        <time>2016-11-08T10:37:51.999Z</time>
      </trkpt>
      <trkpt lat="43.3945" lon="5.51841">
        <ele>532.67</ele>
        <time>2016-11-08T10:38:01.999Z</time>
      </trkpt>
      <trkpt lat="43.3946" lon="5.51838">
        <ele>533.5</ele>
        <time>2016-11-08T10:38:11.999Z</time>
      </trkpt>
      <trkpt lat="43.3947" lon="5.51836">
        <ele>534.38</ele>
        <time>2016-11-08T10:38:21.999Z</time>
      </trkpt>
      <trkpt lat="43.39479" lon="5.51836">
        <ele>535.23</ele>
        <time>2016-11-08T10:38:30.999Z</time>
      </trkpt>
      <trkpt lat="43.39489" lon="5.51838">
        <ele>536.13</ele>
        <time>2016-11-08T10:38:39.999Z</time>
      </trkpt>
      <trkpt lat="43.39499" lon="5.51838">
        <ele>536.96</ele>
        <time>2016-11-08T10:38:47.999Z</time>
      </trkpt>
      <trkpt lat="43.39509" lon="5.51838">
        <ele>537.96</ele>
        <time>2016-11-08T10:38:56.999Z</time>
      </trkpt>
      <trkpt lat="43.39518" lon="5.51837">
        <ele>538.87</ele>
        <time>2016-11-08T10:39:04.999Z</time>
      </trkpt>
      <trkpt lat="43.39528" lon="5.51833">
        <ele>539.89</ele>
        <time>2016-11-08T10:39:13.999Z</time>
      </trkpt>
      <trkpt lat="43.39537" lon="5.51828">
        <ele>542.09</ele>
        <time>2016-11-08T10:39:51.999Z</time>
      </trkpt>
      <trkpt lat="43.39545" lon="5.51822">
        <ele>543.18</ele>
        <time>2016-11-08T10:39:59.999Z</time>
      </trkpt>
      <trkpt lat="43.39552" lon="5.51814">
        <ele>544.3</ele>
        <time>2016-11-08T10:40:08.999Z</time>
      </trkpt>
      <trkpt lat="43.39558" lon="5.51802">
        <ele>545.29</ele>
        <time>2016-11-08T10:40:17.999Z</time>
      </trkpt>
      <trkpt lat="43.39565" lon="5.51794">
        <ele>546.01</ele>
        <time>2016-11-08T10:40:24.999Z</time>
      </trkpt>
      <trkpt lat="43.39571" lon="5.51784">
        <ele>546.78</ele>
        <time>2016-11-08T10:40:32.999Z</time>
      </trkpt>
      <trkpt lat="43.39581" lon="5.51778">
        <ele>547.52</ele>
        <time>2016-11-08T10:40:40.999Z</time>
      </trkpt>
      <trkpt lat="43.39589" lon="5.51773">
        <ele>548.2</ele>
        <time>2016-11-08T10:40:48.999Z</time>
      </trkpt>
      <trkpt lat="43.39598" lon="5.51768">
        <ele>548.74</ele>
        <time>2016-11-08T10:40:55.999Z</time>
      </trkpt>
      <trkpt lat="43.39606" lon="5.51762">
        <ele>550.05</ele>
        <time>2016-11-08T10:41:13.999Z</time>
      </trkpt>
      <trkpt lat="43.39616" lon="5.51762">
        <ele>550.75</ele>
        <time>2016-11-08T10:41:24.999Z</time>
      </trkpt>
      <trkpt lat="43.39624" lon="5.51758">
        <ele>551.55</ele>
        <time>2016-11-08T10:41:37.999Z</time>
      </trkpt>
      <trkpt lat="43.39634" lon="5.51753">
        <ele>552.33</ele>
        <time>2016-11-08T10:41:50.999Z</time>
      </trkpt>
      <trkpt lat="43.39643" lon="5.51753">
        <ele>552.94</ele>
        <time>2016-11-08T10:42:00.999Z</time>
      </trkpt>
      <trkpt lat="43.39653" lon="5.51753">
        <ele>553.74</ele>
        <time>2016-11-08T10:42:13.999Z</time>
      </trkpt>
      <trkpt lat="43.39661" lon="5.51751">
        <ele>554.61</ele>
        <time>2016-11-08T10:42:29.999Z</time>
      </trkpt>
      <trkpt lat="43.39671" lon="5.51751">
        <ele>555.08</ele>
        <time>2016-11-08T10:42:44.999Z</time>
      </trkpt>
      <trkpt lat="43.39678" lon="5.51744">
        <ele>555.4</ele>
        <time>2016-11-08T10:43:03.999Z</time>
      </trkpt>
      <trkpt lat="43.39687" lon="5.5174">
        <ele>555.58</ele>
        <time>2016-11-08T10:43:17.999Z</time>
      </trkpt>
      <trkpt lat="43.39694" lon="5.5173">
        <ele>555.91</ele>
        <time>2016-11-08T10:43:35.999Z</time>
      </trkpt>
      <trkpt lat="43.39701" lon="5.51722">
        <ele>556.13</ele>
        <time>2016-11-08T10:43:45.999Z</time>
      </trkpt>
      <trkpt lat="43.39709" lon="5.51717">
        <ele>556.66</ele>
        <time>2016-11-08T10:44:03.999Z</time>
      </trkpt>
      <trkpt lat="43.39717" lon="5.5171">
        <ele>557.18</ele>
        <time>2016-11-08T10:44:19.999Z</time>
      </trkpt>
      <trkpt lat="43.39725" lon="5.51705">
        <ele>557.67</ele>
        <time>2016-11-08T10:44:33.999Z</time>
      </trkpt>
      <trkpt lat="43.39734" lon="5.517">
        <ele>558.18</ele>
        <time>2016-11-08T10:44:47.999Z</time>
      </trkpt>
      <trkpt lat="43.39743" lon="5.51698">
        <ele>558.81</ele>
        <time>2016-11-08T10:45:01.999Z</time>
      </trkpt>
      <trkpt lat="43.39752" lon="5.51692">
        <ele>559.43</ele>
        <time>2016-11-08T10:45:13.999Z</time>
      </trkpt>
      <trkpt lat="43.39761" lon="5.51687">
        <ele>560.22</ele>
        <time>2016-11-08T10:45:27.999Z</time>
      </trkpt>
      <trkpt lat="43.39769" lon="5.51683">
        <ele>560.98</ele>
        <time>2016-11-08T10:45:39.999Z</time>
      </trkpt>
      <trkpt lat="43.39779" lon="5.51681">
        <ele>561.67</ele>
        <time>2016-11-08T10:45:50.999Z</time>
      </trkpt>
      <trkpt lat="43.39788" lon="5.51678">
        <ele>562.27</ele>
        <time>2016-11-08T10:46:00.999Z</time>
      </trkpt>
      <trkpt lat="43.39796" lon="5.51671">
        <ele>563.07</ele>
        <time>2016-11-08T10:46:15.999Z</time>
      </trkpt>
      <trkpt lat="43.39806" lon="5.51671">
        <ele>564.49</ele>
        <time>2016-11-08T10:46:39.999Z</time>
      </trkpt>
      <trkpt lat="43.39814" lon="5.51669">
        <ele>565.35</ele>
        <time>2016-11-08T10:46:52.999Z</time>
      </trkpt>
      <trkpt lat="43.39824" lon="5.51671">
        <ele>566.26</ele>
        <time>2016-11-08T10:47:06.999Z</time>
      </trkpt>
      <trkpt lat="43.39832" lon="5.5167">
        <ele>566.97</ele>
        <time>2016-11-08T10:47:16.999Z</time>
      </trkpt>
      <trkpt lat="43.39842" lon="5.51674">
        <ele>567.75</ele>
        <time>2016-11-08T10:47:27.999Z</time>
      </trkpt>
      <trkpt lat="43.39852" lon="5.51677">
        <ele>570.1</ele>
        <time>2016-11-08T10:48:10.999Z</time>
      </trkpt>
      <trkpt lat="43.39862" lon="5.5168">
        <ele>570.69</ele>
        <time>2016-11-08T10:48:17.999Z</time>
      </trkpt>
      <trkpt lat="43.39854" lon="5.51687">
        <ele>574.61</ele>
        <time>2016-11-08T10:49:00.999Z</time>
      </trkpt>
      <trkpt lat="43.39845" lon="5.51692">
        <ele>575.84</ele>
        <time>2016-11-08T10:49:13.999Z</time>
      </trkpt>
      <trkpt lat="43.39838" lon="5.517">
        <ele>576.72</ele>
        <time>2016-11-08T10:49:23.999Z</time>
      </trkpt>
      <trkpt lat="43.3983" lon="5.51708">
        <ele>577.99</ele>
        <time>2016-11-08T10:49:39.999Z</time>
      </trkpt>
      <trkpt lat="43.39823" lon="5.51716">
        <ele>579.03</ele>
        <time>2016-11-08T10:49:52.999Z</time>
      </trkpt>
      <trkpt lat="43.39819" lon="5.51728">
        <ele>580.59</ele>
        <time>2016-11-08T10:50:18.999Z</time>
      </trkpt>
      <trkpt lat="43.39815" lon="5.5174">
        <ele>583.67</ele>
        <time>2016-11-08T10:51:13.999Z</time>
      </trkpt>
      <trkpt lat="43.39806" lon="5.51744">
        <ele>586.55</ele>
        <time>2016-11-08T10:51:51.999Z</time>
      </trkpt>
      <trkpt lat="43.39797" lon="5.51746">
        <ele>588.21</ele>
        <time>2016-11-08T10:52:08.999Z</time>
      </trkpt>
      <trkpt lat="43.398" lon="5.51759">
        <ele>595.17</ele>
        <time>2016-11-08T10:53:33.999Z</time>
      </trkpt>
      <trkpt lat="43.39804" lon="5.5177">
        <ele>596.46</ele>
        <time>2016-11-08T10:53:46.999Z</time>
      </trkpt>
      <trkpt lat="43.3981" lon="5.51778">
        <ele>601.91</ele>
        <time>2016-11-08T10:54:32.999Z</time>
      </trkpt>
      <trkpt lat="43.39807" lon="5.51791">
        <ele>604.87</ele>
        <time>2016-11-08T10:55:11.999Z</time>
      </trkpt>
      <trkpt lat="43.39816" lon="5.51788">
        <ele>607.14</ele>
        <time>2016-11-08T10:56:24.999Z</time>
      </trkpt>
      <trkpt lat="43.39821" lon="5.51777">
        <ele>608.71</ele>
        <time>2016-11-08T11:00:56.999Z</time>
      </trkpt>
      <trkpt lat="43.39813" lon="5.51784">
        <ele>629.73</ele>
        <time>2016-11-08T11:49:04.999Z</time>
      </trkpt>
      <trkpt lat="43.3982" lon="5.51771">
        <ele>623.53</ele>
        <time>2016-11-08T12:19:22.636Z</time>
      </trkpt>
      <trkpt lat="43.39818" lon="5.51785">
        <ele>634.28</ele>
        <time>2016-11-08T12:19:27.646Z</time>
      </trkpt>
      <trkpt lat="43.39811" lon="5.51779">
        <ele>626.32</ele>
        <time>2016-11-08T12:19:58.999Z</time>
      </trkpt>
      <trkpt lat="43.39806" lon="5.51768">
        <ele>622.99</ele>
        <time>2016-11-08T12:22:29.999Z</time>
      </trkpt>
      <trkpt lat="43.39801" lon="5.51758">
        <ele>621.92</ele>
        <time>2016-11-08T12:22:44.999Z</time>
      </trkpt>
      <trkpt lat="43.39809" lon="5.51751">
        <ele>622.15</ele>
        <time>2016-11-08T12:23:32.999Z</time>
      </trkpt>
      <trkpt lat="43.39817" lon="5.51744">
        <ele>623.23</ele>
        <time>2016-11-08T12:23:54.999Z</time>
      </trkpt>
      <trkpt lat="43.39823" lon="5.51735">
        <ele>625.76</ele>
        <time>2016-11-08T12:25:36.999Z</time>
      </trkpt>
      <trkpt lat="43.39832" lon="5.51734">
        <ele>626.19</ele>
        <time>2016-11-08T12:25:47.999Z</time>
      </trkpt>
      <trkpt lat="43.39842" lon="5.51734">
        <ele>626.59</ele>
        <time>2016-11-08T12:26:01.999Z</time>
      </trkpt>
      <trkpt lat="43.39851" lon="5.51738">
        <ele>627.4</ele>
        <time>2016-11-08T12:27:53.999Z</time>
      </trkpt>
      <trkpt lat="43.39858" lon="5.51747">
        <ele>627.64</ele>
        <time>2016-11-08T12:28:07.999Z</time>
      </trkpt>
      <trkpt lat="43.3986" lon="5.51759">
        <ele>627.77</ele>
        <time>2016-11-08T12:28:17.999Z</time>
      </trkpt>
      <trkpt lat="43.39865" lon="5.51769">
        <ele>627.86</ele>
        <time>2016-11-08T12:28:24.999Z</time>
      </trkpt>
      <trkpt lat="43.39871" lon="5.5178">
        <ele>627.96</ele>
        <time>2016-11-08T12:28:32.999Z</time>
      </trkpt>
      <trkpt lat="43.39879" lon="5.51788">
        <ele>628.11</ele>
        <time>2016-11-08T12:28:46.999Z</time>
      </trkpt>
      <trkpt lat="43.39885" lon="5.51798">
        <ele>628.24</ele>
        <time>2016-11-08T12:29:00.999Z</time>
      </trkpt>
      <trkpt lat="43.39892" lon="5.51808">
        <ele>628.35</ele>
        <time>2016-11-08T12:29:10.999Z</time>
      </trkpt>
      <trkpt lat="43.399" lon="5.51816">
        <ele>628.44</ele>
        <time>2016-11-08T12:29:18.999Z</time>
      </trkpt>
      <trkpt lat="43.39908" lon="5.51823">
        <ele>628.53</ele>
        <time>2016-11-08T12:29:27.999Z</time>
      </trkpt>
      <trkpt lat="43.39916" lon="5.51828">
        <ele>628.6</ele>
        <time>2016-11-08T12:29:32.999Z</time>
      </trkpt>
      <trkpt lat="43.39925" lon="5.51832">
        <ele>628.73</ele>
        <time>2016-11-08T12:29:41.999Z</time>
      </trkpt>
      <trkpt lat="43.39935" lon="5.51827">
        <ele>629.67</ele>
        <time>2016-11-08T12:30:46.999Z</time>
      </trkpt>
      <trkpt lat="43.3994" lon="5.51817">
        <ele>630.08</ele>
        <time>2016-11-08T12:30:55.999Z</time>
      </trkpt>
      <trkpt lat="43.39945" lon="5.51805">
        <ele>630.42</ele>
        <time>2016-11-08T12:31:04.999Z</time>
      </trkpt>
      <trkpt lat="43.3995" lon="5.51795">
        <ele>630.69</ele>
        <time>2016-11-08T12:31:13.999Z</time>
      </trkpt>
      <trkpt lat="43.39956" lon="5.51784">
        <ele>630.89</ele>
        <time>2016-11-08T12:31:21.999Z</time>
      </trkpt>
      <trkpt lat="43.39962" lon="5.51775">
        <ele>631.06</ele>
        <time>2016-11-08T12:31:29.999Z</time>
      </trkpt>
      <trkpt lat="43.39967" lon="5.51764">
        <ele>631.25</ele>
        <time>2016-11-08T12:31:41.999Z</time>
      </trkpt>
      <trkpt lat="43.39974" lon="5.51754">
        <ele>631.4</ele>
        <time>2016-11-08T12:31:56.999Z</time>
      </trkpt>
      <trkpt lat="43.3998" lon="5.51745">
        <ele>631.45</ele>
        <time>2016-11-08T12:32:04.999Z</time>
      </trkpt>
      <trkpt lat="43.39988" lon="5.51738">
        <ele>631.47</ele>
        <time>2016-11-08T12:32:14.999Z</time>
      </trkpt>
      <trkpt lat="43.39997" lon="5.5174">
        <ele>631.48</ele>
        <time>2016-11-08T12:32:23.999Z</time>
      </trkpt>
      <trkpt lat="43.40006" lon="5.51737">
        <ele>631.47</ele>
        <time>2016-11-08T12:32:33.999Z</time>
      </trkpt>
      <trkpt lat="43.40015" lon="5.51732">
        <ele>631.45</ele>
        <time>2016-11-08T12:32:42.999Z</time>
      </trkpt>
      <trkpt lat="43.40023" lon="5.51724">
        <ele>631.41</ele>
        <time>2016-11-08T12:32:51.999Z</time>
      </trkpt>
      <trkpt lat="43.40031" lon="5.51717">
        <ele>631.34</ele>
        <time>2016-11-08T12:32:59.999Z</time>
      </trkpt>
      <trkpt lat="43.40039" lon="5.5171">
        <ele>631.26</ele>
        <time>2016-11-08T12:33:07.999Z</time>
      </trkpt>
      <trkpt lat="43.40047" lon="5.51706">
        <ele>631.19</ele>
        <time>2016-11-08T12:33:13.999Z</time>
      </trkpt>
      <trkpt lat="43.40055" lon="5.51697">
        <ele>631.05</ele>
        <time>2016-11-08T12:33:24.999Z</time>
      </trkpt>
      <trkpt lat="43.40063" lon="5.51691">
        <ele>630.9</ele>
        <time>2016-11-08T12:33:34.999Z</time>
      </trkpt>
      <trkpt lat="43.40072" lon="5.51687">
        <ele>630.79</ele>
        <time>2016-11-08T12:33:41.999Z</time>
      </trkpt>
      <trkpt lat="43.40081" lon="5.51682">
        <ele>630.63</ele>
        <time>2016-11-08T12:33:49.999Z</time>
      </trkpt>
      <trkpt lat="43.4009" lon="5.51678">
        <ele>630.46</ele>
        <time>2016-11-08T12:33:57.999Z</time>
      </trkpt>
      <trkpt lat="43.40099" lon="5.51674">
        <ele>630.28</ele>
        <time>2016-11-08T12:34:05.999Z</time>
      </trkpt>
      <trkpt lat="43.40107" lon="5.51668">
        <ele>630.1</ele>
        <time>2016-11-08T12:34:13.999Z</time>
      </trkpt>
      <trkpt lat="43.40116" lon="5.51664">
        <ele>629.89</ele>
        <time>2016-11-08T12:34:22.999Z</time>
      </trkpt>
      <trkpt lat="43.40125" lon="5.51659">
        <ele>629.72</ele>
        <time>2016-11-08T12:34:30.999Z</time>
      </trkpt>
      <trkpt lat="43.40134" lon="5.51655">
        <ele>629.52</ele>
        <time>2016-11-08T12:34:39.999Z</time>
      </trkpt>
      <trkpt lat="43.40141" lon="5.51647">
        <ele>629.3</ele>
        <time>2016-11-08T12:34:49.999Z</time>
      </trkpt>
      <trkpt lat="43.40148" lon="5.51637">
        <ele>629.08</ele>
        <time>2016-11-08T12:34:59.999Z</time>
      </trkpt>
      <trkpt lat="43.40155" lon="5.51628">
        <ele>628.82</ele>
        <time>2016-11-08T12:35:10.999Z</time>
      </trkpt>
      <trkpt lat="43.40159" lon="5.51615">
        <ele>628.59</ele>
        <time>2016-11-08T12:35:19.999Z</time>
      </trkpt>
      <trkpt lat="43.40162" lon="5.51603">
        <ele>628.35</ele>
        <time>2016-11-08T12:35:28.999Z</time>
      </trkpt>
      <trkpt lat="43.40167" lon="5.51592">
        <ele>628.09</ele>
        <time>2016-11-08T12:35:38.999Z</time>
      </trkpt>
      <trkpt lat="43.40167" lon="5.51577">
        <ele>627.77</ele>
        <time>2016-11-08T12:35:51.999Z</time>
      </trkpt>
      <trkpt lat="43.40168" lon="5.51565">
        <ele>627.47</ele>
        <time>2016-11-08T12:36:03.999Z</time>
      </trkpt>
      <trkpt lat="43.40169" lon="5.51552">
        <ele>627.23</ele>
        <time>2016-11-08T12:36:12.999Z</time>
      </trkpt>
      <trkpt lat="43.40168" lon="5.51539">
        <ele>626.91</ele>
        <time>2016-11-08T12:36:24.999Z</time>
      </trkpt>
      <trkpt lat="43.40163" lon="5.51529">
        <ele>626.65</ele>
        <time>2016-11-08T12:36:34.999Z</time>
      </trkpt>
      <trkpt lat="43.40156" lon="5.51519">
        <ele>626.35</ele>
        <time>2016-11-08T12:36:45.999Z</time>
      </trkpt>
      <trkpt lat="43.40151" lon="5.51508">
        <ele>626.1</ele>
        <time>2016-11-08T12:36:54.999Z</time>
      </trkpt>
      <trkpt lat="43.40146" lon="5.51497">
        <ele>625.77</ele>
        <time>2016-11-08T12:37:06.999Z</time>
      </trkpt>
      <trkpt lat="43.40141" lon="5.51485">
        <ele>625.46</ele>
        <time>2016-11-08T12:37:17.999Z</time>
      </trkpt>
      <trkpt lat="43.40137" lon="5.51473">
        <ele>625.29</ele>
        <time>2016-11-08T12:37:23.999Z</time>
      </trkpt>
      <trkpt lat="43.40136" lon="5.51459">
        <ele>624.98</ele>
        <time>2016-11-08T12:37:34.999Z</time>
      </trkpt>
      <trkpt lat="43.40135" lon="5.51444">
        <ele>624.81</ele>
        <time>2016-11-08T12:37:40.999Z</time>
      </trkpt>
      <trkpt lat="43.40134" lon="5.51432">
        <ele>624.44</ele>
        <time>2016-11-08T12:37:53.999Z</time>
      </trkpt>
      <trkpt lat="43.40127" lon="5.51423">
        <ele>624.06</ele>
        <time>2016-11-08T12:38:05.999Z</time>
      </trkpt>
      <trkpt lat="43.40122" lon="5.51412">
        <ele>623.64</ele>
        <time>2016-11-08T12:38:16.999Z</time>
      </trkpt>
      <trkpt lat="43.40117" lon="5.51402">
        <ele>623.36</ele>
        <time>2016-11-08T12:38:23.999Z</time>
      </trkpt>
      <trkpt lat="43.40112" lon="5.51391">
        <ele>622.79</ele>
        <time>2016-11-08T12:38:37.999Z</time>
      </trkpt>
      <trkpt lat="43.40103" lon="5.51387">
        <ele>622.24</ele>
        <time>2016-11-08T12:38:51.999Z</time>
      </trkpt>
      <trkpt lat="43.40094" lon="5.51385">
        <ele>621.76</ele>
        <time>2016-11-08T12:39:03.999Z</time>
      </trkpt>
      <trkpt lat="43.40085" lon="5.51384">
        <ele>621.4</ele>
        <time>2016-11-08T12:39:12.999Z</time>
      </trkpt>
      <trkpt lat="43.40077" lon="5.51376">
        <ele>621.16</ele>
        <time>2016-11-08T12:39:18.999Z</time>
      </trkpt>
      <trkpt lat="43.40072" lon="5.51367">
        <ele>620.61</ele>
        <time>2016-11-08T12:39:31.999Z</time>
      </trkpt>
      <trkpt lat="43.40067" lon="5.51356">
        <ele>620.33</ele>
        <time>2016-11-08T12:39:38.999Z</time>
      </trkpt>
      <trkpt lat="43.40063" lon="5.51344">
        <ele>619.94</ele>
        <time>2016-11-08T12:39:48.999Z</time>
      </trkpt>
      <trkpt lat="43.40058" lon="5.51333">
        <ele>619.56</ele>
        <time>2016-11-08T12:39:58.999Z</time>
      </trkpt>
      <trkpt lat="43.40051" lon="5.51325">
        <ele>619.17</ele>
        <time>2016-11-08T12:40:09.999Z</time>
      </trkpt>
      <trkpt lat="43.40043" lon="5.5132">
        <ele>618.82</ele>
        <time>2016-11-08T12:40:19.999Z</time>
      </trkpt>
      <trkpt lat="43.40033" lon="5.51316">
        <ele>618.47</ele>
        <time>2016-11-08T12:40:29.999Z</time>
      </trkpt>
      <trkpt lat="43.40025" lon="5.51314">
        <ele>618.07</ele>
        <time>2016-11-08T12:40:40.999Z</time>
      </trkpt>
      <trkpt lat="43.40015" lon="5.51312">
        <ele>617.67</ele>
        <time>2016-11-08T12:40:51.999Z</time>
      </trkpt>
      <trkpt lat="43.40006" lon="5.51308">
        <ele>617.26</ele>
        <time>2016-11-08T12:41:02.999Z</time>
      </trkpt>
      <trkpt lat="43.39996" lon="5.51304">
        <ele>616.87</ele>
        <time>2016-11-08T12:41:12.999Z</time>
      </trkpt>
      <trkpt lat="43.39988" lon="5.51297">
        <ele>616.46</ele>
        <time>2016-11-08T12:41:22.999Z</time>
      </trkpt>
      <trkpt lat="43.39987" lon="5.51284">
        <ele>616.06</ele>
        <time>2016-11-08T12:41:32.999Z</time>
      </trkpt>
      <trkpt lat="43.39985" lon="5.51272">
        <ele>615.8</ele>
        <time>2016-11-08T12:41:39.999Z</time>
      </trkpt>
      <trkpt lat="43.39982" lon="5.5126">
        <ele>615.5</ele>
        <time>2016-11-08T12:41:47.999Z</time>
      </trkpt>
      <trkpt lat="43.39977" lon="5.51249">
        <ele>615.21</ele>
        <time>2016-11-08T12:41:55.999Z</time>
      </trkpt>
      <trkpt lat="43.3997" lon="5.51238">
        <ele>614.93</ele>
        <time>2016-11-08T12:42:03.999Z</time>
      </trkpt>
      <trkpt lat="43.39964" lon="5.51229">
        <ele>614.67</ele>
        <time>2016-11-08T12:42:11.999Z</time>
      </trkpt>
      <trkpt lat="43.39959" lon="5.51219">
        <ele>614.33</ele>
        <time>2016-11-08T12:42:21.999Z</time>
      </trkpt>
      <trkpt lat="43.39952" lon="5.5121">
        <ele>613.94</ele>
        <time>2016-11-08T12:42:32.999Z</time>
      </trkpt>
      <trkpt lat="43.39946" lon="5.512">
        <ele>613.61</ele>
        <time>2016-11-08T12:42:41.999Z</time>
      </trkpt>
      <trkpt lat="43.39938" lon="5.51191">
        <ele>613.38</ele>
        <time>2016-11-08T12:42:47.999Z</time>
      </trkpt>
      <trkpt lat="43.39932" lon="5.51182">
        <ele>613.02</ele>
        <time>2016-11-08T12:42:56.999Z</time>
      </trkpt>
      <trkpt lat="43.39924" lon="5.51176">
        <ele>612.59</ele>
        <time>2016-11-08T12:43:06.999Z</time>
      </trkpt>
      <trkpt lat="43.39915" lon="5.51173">
        <ele>612.23</ele>
        <time>2016-11-08T12:43:14.999Z</time>
      </trkpt>
      <trkpt lat="43.39905" lon="5.51172">
        <ele>611.72</ele>
        <time>2016-11-08T12:43:25.999Z</time>
      </trkpt>
      <trkpt lat="43.39895" lon="5.51172">
        <ele>611.32</ele>
        <time>2016-11-08T12:43:34.999Z</time>
      </trkpt>
      <trkpt lat="43.39885" lon="5.51173">
        <ele>610.98</ele>
        <time>2016-11-08T12:43:42.999Z</time>
      </trkpt>
      <trkpt lat="43.39875" lon="5.51172">
        <ele>610.62</ele>
        <time>2016-11-08T12:43:51.999Z</time>
      </trkpt>
      <trkpt lat="43.39868" lon="5.51163">
        <ele>610.25</ele>
        <time>2016-11-08T12:44:01.999Z</time>
      </trkpt>
      <trkpt lat="43.39867" lon="5.51149">
        <ele>610</ele>
        <time>2016-11-08T12:44:08.999Z</time>
      </trkpt>
      <trkpt lat="43.39867" lon="5.51133">
        <ele>609.8</ele>
        <time>2016-11-08T12:44:13.999Z</time>
      </trkpt>
      <trkpt lat="43.3986" lon="5.51122">
        <ele>609.57</ele>
        <time>2016-11-08T12:44:18.999Z</time>
      </trkpt>
      <trkpt lat="43.39855" lon="5.51111">
        <ele>609.09</ele>
        <time>2016-11-08T12:44:28.999Z</time>
      </trkpt>
      <trkpt lat="43.3985" lon="5.511">
        <ele>608.63</ele>
        <time>2016-11-08T12:44:38.999Z</time>
      </trkpt>
      <trkpt lat="43.39848" lon="5.51087">
        <ele>608.21</ele>
        <time>2016-11-08T12:44:48.999Z</time>
      </trkpt>
      <trkpt lat="43.39846" lon="5.51075">
        <ele>607.92</ele>
        <time>2016-11-08T12:44:56.999Z</time>
      </trkpt>
      <trkpt lat="43.39843" lon="5.51062">
        <ele>607.64</ele>
        <time>2016-11-08T12:45:04.999Z</time>
      </trkpt>
      <trkpt lat="43.3984" lon="5.51051">
        <ele>607.34</ele>
        <time>2016-11-08T12:45:13.999Z</time>
      </trkpt>
      <trkpt lat="43.39836" lon="5.51039">
        <ele>607.11</ele>
        <time>2016-11-08T12:45:20.999Z</time>
      </trkpt>
      <trkpt lat="43.39835" lon="5.51027">
        <ele>606.86</ele>
        <time>2016-11-08T12:45:28.999Z</time>
      </trkpt>
      <trkpt lat="43.39835" lon="5.51014">
        <ele>605.2</ele>
        <time>2016-11-08T12:47:57.999Z</time>
      </trkpt>
      <trkpt lat="43.3983" lon="5.51003">
        <ele>603.92</ele>
        <time>2016-11-08T12:48:23.999Z</time>
      </trkpt>
      <trkpt lat="43.39822" lon="5.50996">
        <ele>603.05</ele>
        <time>2016-11-08T12:48:35.999Z</time>
      </trkpt>
      <trkpt lat="43.39813" lon="5.50989">
        <ele>602.37</ele>
        <time>2016-11-08T12:48:46.999Z</time>
      </trkpt>
      <trkpt lat="43.39806" lon="5.50982">
        <ele>601.85</ele>
        <time>2016-11-08T12:48:56.999Z</time>
      </trkpt>
      <trkpt lat="43.39801" lon="5.50969">
        <ele>601.37</ele>
        <time>2016-11-08T12:49:07.999Z</time>
      </trkpt>
      <trkpt lat="43.39793" lon="5.50961">
        <ele>601.06</ele>
        <time>2016-11-08T12:49:15.999Z</time>
      </trkpt>
      <trkpt lat="43.39785" lon="5.50955">
        <ele>600.73</ele>
        <time>2016-11-08T12:49:24.999Z</time>
      </trkpt>
      <trkpt lat="43.39777" lon="5.50949">
        <ele>600.41</ele>
        <time>2016-11-08T12:49:34.999Z</time>
      </trkpt>
      <trkpt lat="43.39769" lon="5.50941">
        <ele>600.1</ele>
        <time>2016-11-08T12:49:45.999Z</time>
      </trkpt>
      <trkpt lat="43.39763" lon="5.50932">
        <ele>599.85</ele>
        <time>2016-11-08T12:49:56.999Z</time>
      </trkpt>
      <trkpt lat="43.39756" lon="5.50921">
        <ele>599.64</ele>
        <time>2016-11-08T12:50:07.999Z</time>
      </trkpt>
      <trkpt lat="43.39753" lon="5.5091">
        <ele>599.5</ele>
        <time>2016-11-08T12:50:16.999Z</time>
      </trkpt>
      <trkpt lat="43.39749" lon="5.50899">
        <ele>599.32</ele>
        <time>2016-11-08T12:50:28.999Z</time>
      </trkpt>
      <trkpt lat="43.39743" lon="5.50889">
        <ele>599.07</ele>
        <time>2016-11-08T12:50:53.999Z</time>
      </trkpt>
      <trkpt lat="43.39735" lon="5.50882">
        <ele>598.9</ele>
        <time>2016-11-08T12:50:59.999Z</time>
      </trkpt>
      <trkpt lat="43.39729" lon="5.50873">
        <ele>598.57</ele>
        <time>2016-11-08T12:51:12.999Z</time>
      </trkpt>
      <trkpt lat="43.39722" lon="5.50863">
        <ele>598.36</ele>
        <time>2016-11-08T12:51:22.999Z</time>
      </trkpt>
      <trkpt lat="43.39715" lon="5.50855">
        <ele>598.24</ele>
        <time>2016-11-08T12:51:28.999Z</time>
      </trkpt>
      <trkpt lat="43.39708" lon="5.50846">
        <ele>598.14</ele>
        <time>2016-11-08T12:51:33.999Z</time>
      </trkpt>
      <trkpt lat="43.39702" lon="5.50836">
        <ele>597.81</ele>
        <time>2016-11-08T12:51:55.999Z</time>
      </trkpt>
      <trkpt lat="43.39706" lon="5.50824">
        <ele>597.41</ele>
        <time>2016-11-08T12:52:14.999Z</time>
      </trkpt>
      <trkpt lat="43.39696" lon="5.50825">
        <ele>596.39</ele>
        <time>2016-11-08T12:52:40.999Z</time>
      </trkpt>
      <trkpt lat="43.39687" lon="5.50826">
        <ele>595.48</ele>
        <time>2016-11-08T12:53:02.999Z</time>
      </trkpt>
      <trkpt lat="43.39677" lon="5.50826">
        <ele>595.06</ele>
        <time>2016-11-08T12:53:13.999Z</time>
      </trkpt>
      <trkpt lat="43.39668" lon="5.50829">
        <ele>594.66</ele>
        <time>2016-11-08T12:53:24.999Z</time>
      </trkpt>
      <trkpt lat="43.39659" lon="5.50835">
        <ele>594.03</ele>
        <time>2016-11-08T12:53:46.999Z</time>
      </trkpt>
      <trkpt lat="43.3965" lon="5.50838">
        <ele>593.66</ele>
        <time>2016-11-08T12:53:59.999Z</time>
      </trkpt>
      <trkpt lat="43.3964" lon="5.5084">
        <ele>593.36</ele>
        <time>2016-11-08T12:54:09.999Z</time>
      </trkpt>
      <trkpt lat="43.39631" lon="5.50842">
        <ele>592.98</ele>
        <time>2016-11-08T12:54:21.999Z</time>
      </trkpt>
      <trkpt lat="43.39621" lon="5.50845">
        <ele>592.56</ele>
        <time>2016-11-08T12:54:34.999Z</time>
      </trkpt>
      <trkpt lat="43.39614" lon="5.50852">
        <ele>592.22</ele>
        <time>2016-11-08T12:54:45.999Z</time>
      </trkpt>
      <trkpt lat="43.39605" lon="5.50856">
        <ele>591.99</ele>
        <time>2016-11-08T12:54:53.999Z</time>
      </trkpt>
      <trkpt lat="43.39595" lon="5.50856">
        <ele>591.69</ele>
        <time>2016-11-08T12:55:05.999Z</time>
      </trkpt>
      <trkpt lat="43.39587" lon="5.50852">
        <ele>591.45</ele>
        <time>2016-11-08T12:55:36.999Z</time>
      </trkpt>
      <trkpt lat="43.39579" lon="5.50844">
        <ele>591.26</ele>
        <time>2016-11-08T12:55:44.999Z</time>
      </trkpt>
      <trkpt lat="43.3957" lon="5.50844">
        <ele>590.61</ele>
        <time>2016-11-08T12:56:06.999Z</time>
      </trkpt>
      <trkpt lat="43.3956" lon="5.50845">
        <ele>590.34</ele>
        <time>2016-11-08T12:56:14.999Z</time>
      </trkpt>
      <trkpt lat="43.39552" lon="5.5084">
        <ele>589.99</ele>
        <time>2016-11-08T12:56:25.999Z</time>
      </trkpt>
      <trkpt lat="43.39542" lon="5.50836">
        <ele>589.71</ele>
        <time>2016-11-08T12:56:35.999Z</time>
      </trkpt>
      <trkpt lat="43.39534" lon="5.50831">
        <ele>589.5</ele>
        <time>2016-11-08T12:56:43.999Z</time>
      </trkpt>
      <trkpt lat="43.39525" lon="5.50825">
        <ele>589.27</ele>
        <time>2016-11-08T12:56:55.999Z</time>
      </trkpt>
      <trkpt lat="43.39516" lon="5.5082">
        <ele>589.1</ele>
        <time>2016-11-08T12:57:02.999Z</time>
      </trkpt>
      <trkpt lat="43.39508" lon="5.50812">
        <ele>588.82</ele>
        <time>2016-11-08T12:57:14.999Z</time>
      </trkpt>
      <trkpt lat="43.39501" lon="5.50803">
        <ele>588.63</ele>
        <time>2016-11-08T12:57:22.999Z</time>
      </trkpt>
      <trkpt lat="43.39495" lon="5.50793">
        <ele>588.41</ele>
        <time>2016-11-08T12:57:31.999Z</time>
      </trkpt>
      <trkpt lat="43.3949" lon="5.50781">
        <ele>588.28</ele>
        <time>2016-11-08T12:57:36.999Z</time>
      </trkpt>
      <trkpt lat="43.39483" lon="5.50773">
        <ele>587.65</ele>
        <time>2016-11-08T12:58:04.999Z</time>
      </trkpt>
      <trkpt lat="43.39477" lon="5.50763">
        <ele>587.46</ele>
        <time>2016-11-08T12:58:14.999Z</time>
      </trkpt>
      <trkpt lat="43.3947" lon="5.50754">
        <ele>587.26</ele>
        <time>2016-11-08T12:58:26.999Z</time>
      </trkpt>
      <trkpt lat="43.39462" lon="5.50749">
        <ele>587.03</ele>
        <time>2016-11-08T12:58:42.999Z</time>
      </trkpt>
      <trkpt lat="43.39454" lon="5.50743">
        <ele>586.76</ele>
        <time>2016-11-08T12:59:00.999Z</time>
      </trkpt>
      <trkpt lat="43.39446" lon="5.50736">
        <ele>586.25</ele>
        <time>2016-11-08T12:59:55.999Z</time>
      </trkpt>
      <trkpt lat="43.39438" lon="5.50732">
        <ele>584.5</ele>
        <time>2016-11-08T13:01:31.999Z</time>
      </trkpt>
      <trkpt lat="43.3943" lon="5.50742">
        <ele>583.85</ele>
        <time>2016-11-08T13:01:55.999Z</time>
      </trkpt>
      <trkpt lat="43.39422" lon="5.5075">
        <ele>583.47</ele>
        <time>2016-11-08T13:02:02.999Z</time>
      </trkpt>
      <trkpt lat="43.39414" lon="5.50756">
        <ele>583.02</ele>
        <time>2016-11-08T13:02:11.999Z</time>
      </trkpt>
      <trkpt lat="43.39405" lon="5.50752">
        <ele>582.55</ele>
        <time>2016-11-08T13:02:21.999Z</time>
      </trkpt>
      <trkpt lat="43.39396" lon="5.50752">
        <ele>582.06</ele>
        <time>2016-11-08T13:02:32.999Z</time>
      </trkpt>
      <trkpt lat="43.39387" lon="5.50756">
        <ele>581.66</ele>
        <time>2016-11-08T13:02:41.999Z</time>
      </trkpt>
      <trkpt lat="43.39378" lon="5.50749">
        <ele>581.32</ele>
        <time>2016-11-08T13:02:49.999Z</time>
      </trkpt>
      <trkpt lat="43.39368" lon="5.50747">
        <ele>580.92</ele>
        <time>2016-11-08T13:02:59.999Z</time>
      </trkpt>
      <trkpt lat="43.39358" lon="5.50746">
        <ele>580.53</ele>
        <time>2016-11-08T13:03:09.999Z</time>
      </trkpt>
      <trkpt lat="43.39349" lon="5.50742">
        <ele>580.2</ele>
        <time>2016-11-08T13:03:18.999Z</time>
      </trkpt>
      <trkpt lat="43.39341" lon="5.50733">
        <ele>579.88</ele>
        <time>2016-11-08T13:03:27.999Z</time>
      </trkpt>
      <trkpt lat="43.39333" lon="5.50726">
        <ele>579.34</ele>
        <time>2016-11-08T13:03:43.999Z</time>
      </trkpt>
      <trkpt lat="43.39325" lon="5.50722">
        <ele>578.96</ele>
        <time>2016-11-08T13:03:55.999Z</time>
      </trkpt>
      <trkpt lat="43.39319" lon="5.50713">
        <ele>578.5</ele>
        <time>2016-11-08T13:04:13.999Z</time>
      </trkpt>
      <trkpt lat="43.39312" lon="5.50703">
        <ele>578.02</ele>
        <time>2016-11-08T13:04:27.999Z</time>
      </trkpt>
      <trkpt lat="43.39306" lon="5.50693">
        <ele>577.62</ele>
        <time>2016-11-08T13:04:35.999Z</time>
      </trkpt>
      <trkpt lat="43.393" lon="5.50684">
        <ele>576.61</ele>
        <time>2016-11-08T13:05:01.999Z</time>
      </trkpt>
      <trkpt lat="43.39305" lon="5.50672">
        <ele>576.41</ele>
        <time>2016-11-08T13:05:06.999Z</time>
      </trkpt>
      <trkpt lat="43.39302" lon="5.50659">
        <ele>575.29</ele>
        <time>2016-11-08T13:05:48.999Z</time>
      </trkpt>
      <trkpt lat="43.39299" lon="5.50647">
        <ele>574.67</ele>
        <time>2016-11-08T13:05:55.999Z</time>
      </trkpt>
      <trkpt lat="43.39296" lon="5.50635">
        <ele>573.64</ele>
        <time>2016-11-08T13:06:10.999Z</time>
      </trkpt>
      <trkpt lat="43.39287" lon="5.50631">
        <ele>569.31</ele>
        <time>2016-11-08T13:07:05.999Z</time>
      </trkpt>
      <trkpt lat="43.3928" lon="5.50623">
        <ele>567.8</ele>
        <time>2016-11-08T13:07:15.999Z</time>
      </trkpt>
      <trkpt lat="43.39274" lon="5.50614">
        <ele>566.38</ele>
        <time>2016-11-08T13:07:24.999Z</time>
      </trkpt>
      <trkpt lat="43.39268" lon="5.50605">
        <ele>564.41</ele>
        <time>2016-11-08T13:07:37.999Z</time>
      </trkpt>
      <trkpt lat="43.39259" lon="5.50599">
        <ele>561.15</ele>
        <time>2016-11-08T13:08:18.999Z</time>
      </trkpt>
      <trkpt lat="43.39249" lon="5.50596">
        <ele>559.92</ele>
        <time>2016-11-08T13:08:26.999Z</time>
      </trkpt>
      <trkpt lat="43.39243" lon="5.50587">
        <ele>554.88</ele>
        <time>2016-11-08T13:10:31.999Z</time>
      </trkpt>
      <trkpt lat="43.39233" lon="5.50588">
        <ele>552.82</ele>
        <time>2016-11-08T13:10:46.999Z</time>
      </trkpt>
      <trkpt lat="43.39223" lon="5.50589">
        <ele>551.75</ele>
        <time>2016-11-08T13:10:56.999Z</time>
      </trkpt>
      <trkpt lat="43.39216" lon="5.50582">
        <ele>550.63</ele>
        <time>2016-11-08T13:11:27.999Z</time>
      </trkpt>
      <trkpt lat="43.39211" lon="5.50571">
        <ele>548.31</ele>
        <time>2016-11-08T13:12:42.999Z</time>
      </trkpt>
      <trkpt lat="43.39209" lon="5.50559">
        <ele>547.05</ele>
        <time>2016-11-08T13:12:55.999Z</time>
      </trkpt>
      <trkpt lat="43.39208" lon="5.50546">
        <ele>545.96</ele>
        <time>2016-11-08T13:13:09.999Z</time>
      </trkpt>
      <trkpt lat="43.39207" lon="5.50533">
        <ele>544.97</ele>
        <time>2016-11-08T13:13:26.999Z</time>
      </trkpt>
      <trkpt lat="43.39199" lon="5.50526">
        <ele>544.26</ele>
        <time>2016-11-08T13:13:52.999Z</time>
      </trkpt>
      <trkpt lat="43.3919" lon="5.50524">
        <ele>543.44</ele>
        <time>2016-11-08T13:14:10.999Z</time>
      </trkpt>
      <trkpt lat="43.3918" lon="5.50524">
        <ele>542.99</ele>
        <time>2016-11-08T13:14:22.999Z</time>
      </trkpt>
      <trkpt lat="43.39172" lon="5.50522">
        <ele>542.25</ele>
        <time>2016-11-08T13:14:47.999Z</time>
      </trkpt>
      <trkpt lat="43.39162" lon="5.50521">
        <ele>541.78</ele>
        <time>2016-11-08T13:15:03.999Z</time>
      </trkpt>
      <trkpt lat="43.39153" lon="5.50517">
        <ele>541.38</ele>
        <time>2016-11-08T13:15:14.999Z</time>
      </trkpt>
      <trkpt lat="43.39144" lon="5.50516">
        <ele>541.04</ele>
        <time>2016-11-08T13:15:27.999Z</time>
      </trkpt>
      <trkpt lat="43.39135" lon="5.50509">
        <ele>540.78</ele>
        <time>2016-11-08T13:15:35.999Z</time>
      </trkpt>
      <trkpt lat="43.39126" lon="5.50506">
        <ele>540.44</ele>
        <time>2016-11-08T13:15:46.999Z</time>
      </trkpt>
      <trkpt lat="43.39118" lon="5.50498">
        <ele>540.15</ele>
        <time>2016-11-08T13:15:55.999Z</time>
      </trkpt>
      <trkpt lat="43.39108" lon="5.50495">
        <ele>539.39</ele>
        <time>2016-11-08T13:16:24.999Z</time>
      </trkpt>
      <trkpt lat="43.39098" lon="5.50497">
        <ele>539.13</ele>
        <time>2016-11-08T13:16:30.999Z</time>
      </trkpt>
      <trkpt lat="43.3909" lon="5.50499">
        <ele>538.64</ele>
        <time>2016-11-08T13:16:41.999Z</time>
      </trkpt>
      <trkpt lat="43.3908" lon="5.50502">
        <ele>538.16</ele>
        <time>2016-11-08T13:16:52.999Z</time>
      </trkpt>
      <trkpt lat="43.39071" lon="5.50499">
        <ele>537.65</ele>
        <time>2016-11-08T13:17:04.999Z</time>
      </trkpt>
      <trkpt lat="43.39062" lon="5.50497">
        <ele>537.25</ele>
        <time>2016-11-08T13:17:14.999Z</time>
      </trkpt>
      <trkpt lat="43.39053" lon="5.50494">
        <ele>536.93</ele>
        <time>2016-11-08T13:17:23.999Z</time>
      </trkpt>
      <trkpt lat="43.39043" lon="5.50495">
        <ele>536.45</ele>
        <time>2016-11-08T13:17:38.999Z</time>
      </trkpt>
      <trkpt lat="43.39034" lon="5.50494">
        <ele>535.67</ele>
        <time>2016-11-08T13:17:52.999Z</time>
      </trkpt>
      <trkpt lat="43.39024" lon="5.50494">
        <ele>535.19</ele>
        <time>2016-11-08T13:17:59.999Z</time>
      </trkpt>
      <trkpt lat="43.39019" lon="5.50484">
        <ele>534.34</ele>
        <time>2016-11-08T13:18:11.999Z</time>
      </trkpt>
      <trkpt lat="43.3901" lon="5.50476">
        <ele>533.53</ele>
        <time>2016-11-08T13:18:24.999Z</time>
      </trkpt>
      <trkpt lat="43.39003" lon="5.50467">
        <ele>533</ele>
        <time>2016-11-08T13:18:33.999Z</time>
      </trkpt>
      <trkpt lat="43.38994" lon="5.50469">
        <ele>532.02</ele>
        <time>2016-11-08T13:18:48.999Z</time>
      </trkpt>
      <trkpt lat="43.38986" lon="5.50476">
        <ele>531.05</ele>
        <time>2016-11-08T13:18:58.999Z</time>
      </trkpt>
      <trkpt lat="43.38977" lon="5.50478">
        <ele>529.74</ele>
        <time>2016-11-08T13:19:10.999Z</time>
      </trkpt>
      <trkpt lat="43.38968" lon="5.50475">
        <ele>528.54</ele>
        <time>2016-11-08T13:19:21.999Z</time>
      </trkpt>
      <trkpt lat="43.38961" lon="5.50465">
        <ele>527.31</ele>
        <time>2016-11-08T13:19:32.999Z</time>
      </trkpt>
      <trkpt lat="43.38953" lon="5.50458">
        <ele>526.21</ele>
        <time>2016-11-08T13:19:41.999Z</time>
      </trkpt>
      <trkpt lat="43.38945" lon="5.50449">
        <ele>525.01</ele>
        <time>2016-11-08T13:19:51.999Z</time>
      </trkpt>
      <trkpt lat="43.38938" lon="5.50441">
        <ele>524.1</ele>
        <time>2016-11-08T13:19:58.999Z</time>
      </trkpt>
      <trkpt lat="43.38931" lon="5.50434">
        <ele>522.5</ele>
        <time>2016-11-08T13:20:10.999Z</time>
      </trkpt>
      <trkpt lat="43.38922" lon="5.50429">
        <ele>521.29</ele>
        <time>2016-11-08T13:20:20.999Z</time>
      </trkpt>
      <trkpt lat="43.38912" lon="5.50428">
        <ele>520.15</ele>
        <time>2016-11-08T13:20:30.999Z</time>
      </trkpt>
      <trkpt lat="43.38903" lon="5.50431">
        <ele>518.5</ele>
        <time>2016-11-08T13:20:43.999Z</time>
      </trkpt>
      <trkpt lat="43.38892" lon="5.50433">
        <ele>516.89</ele>
        <time>2016-11-08T13:20:56.999Z</time>
      </trkpt>
      <trkpt lat="43.38882" lon="5.50432">
        <ele>515.54</ele>
        <time>2016-11-08T13:21:05.999Z</time>
      </trkpt>
      <trkpt lat="43.38873" lon="5.50434">
        <ele>513.51</ele>
        <time>2016-11-08T13:21:19.999Z</time>
      </trkpt>
      <trkpt lat="43.38863" lon="5.50432">
        <ele>510.12</ele>
        <time>2016-11-08T13:22:20.999Z</time>
      </trkpt>
      <trkpt lat="43.38854" lon="5.50428">
        <ele>508.35</ele>
        <time>2016-11-08T13:22:33.999Z</time>
      </trkpt>
      <trkpt lat="43.38844" lon="5.50426">
        <ele>507.37</ele>
        <time>2016-11-08T13:22:41.999Z</time>
      </trkpt>
      <trkpt lat="43.38835" lon="5.50425">
        <ele>506.47</ele>
        <time>2016-11-08T13:22:49.999Z</time>
      </trkpt>
      <trkpt lat="43.38825" lon="5.50428">
        <ele>505.75</ele>
        <time>2016-11-08T13:22:56.999Z</time>
      </trkpt>
      <trkpt lat="43.38816" lon="5.50432">
        <ele>505.07</ele>
        <time>2016-11-08T13:23:03.999Z</time>
      </trkpt>
      <trkpt lat="43.38808" lon="5.50437">
        <ele>504.08</ele>
        <time>2016-11-08T13:23:14.999Z</time>
      </trkpt>
      <trkpt lat="43.388" lon="5.50431">
        <ele>503.24</ele>
        <time>2016-11-08T13:23:24.999Z</time>
      </trkpt>
      <trkpt lat="43.38796" lon="5.5042">
        <ele>501.71</ele>
        <time>2016-11-08T13:24:03.999Z</time>
      </trkpt>
      <trkpt lat="43.38791" lon="5.5041">
        <ele>500.5</ele>
        <time>2016-11-08T13:24:25.999Z</time>
      </trkpt>
      <trkpt lat="43.38786" lon="5.50398">
        <ele>499.55</ele>
        <time>2016-11-08T13:24:37.999Z</time>
      </trkpt>
      <trkpt lat="43.38783" lon="5.50387">
        <ele>499.07</ele>
        <time>2016-11-08T13:24:44.999Z</time>
      </trkpt>
      <trkpt lat="43.3878" lon="5.50373">
        <ele>498.57</ele>
        <time>2016-11-08T13:24:52.999Z</time>
      </trkpt>
      <trkpt lat="43.38778" lon="5.5036">
        <ele>498.1</ele>
        <time>2016-11-08T13:25:00.999Z</time>
      </trkpt>
      <trkpt lat="43.38775" lon="5.50346">
        <ele>497.63</ele>
        <time>2016-11-08T13:25:08.999Z</time>
      </trkpt>
      <trkpt lat="43.38773" lon="5.50333">
        <ele>497.16</ele>
        <time>2016-11-08T13:25:16.999Z</time>
      </trkpt>
      <trkpt lat="43.3877" lon="5.5032">
        <ele>496.7</ele>
        <time>2016-11-08T13:25:24.999Z</time>
      </trkpt>
      <trkpt lat="43.38767" lon="5.50308">
        <ele>496.17</ele>
        <time>2016-11-08T13:25:33.999Z</time>
      </trkpt>
      <trkpt lat="43.38763" lon="5.50296">
        <ele>495.72</ele>
        <time>2016-11-08T13:25:41.999Z</time>
      </trkpt>
      <trkpt lat="43.3876" lon="5.50284">
        <ele>495.24</ele>
        <time>2016-11-08T13:25:50.999Z</time>
      </trkpt>
      <trkpt lat="43.38752" lon="5.50279">
        <ele>494.37</ele>
        <time>2016-11-08T13:26:14.999Z</time>
      </trkpt>
      <trkpt lat="43.38755" lon="5.50267">
        <ele>489.23</ele>
        <time>2016-11-08T13:31:24.999Z</time>
      </trkpt>
      <trkpt lat="43.38754" lon="5.50253">
        <ele>488.68</ele>
        <time>2016-11-08T13:31:47.999Z</time>
      </trkpt>
      <trkpt lat="43.38751" lon="5.50242">
        <ele>488.43</ele>
        <time>2016-11-08T13:31:56.999Z</time>
      </trkpt>
      <trkpt lat="43.38746" lon="5.5023">
        <ele>488.08</ele>
        <time>2016-11-08T13:32:09.999Z</time>
      </trkpt>
      <trkpt lat="43.38742" lon="5.50217">
        <ele>487.75</ele>
        <time>2016-11-08T13:32:22.999Z</time>
      </trkpt>
      <trkpt lat="43.38738" lon="5.50206">
        <ele>487.45</ele>
        <time>2016-11-08T13:32:33.999Z</time>
      </trkpt>
      <trkpt lat="43.38736" lon="5.50193">
        <ele>487.14</ele>
        <time>2016-11-08T13:32:45.999Z</time>
      </trkpt>
      <trkpt lat="43.3873" lon="5.50182">
        <ele>486.86</ele>
        <time>2016-11-08T13:32:55.999Z</time>
      </trkpt>
      <trkpt lat="43.38728" lon="5.50169">
        <ele>486.56</ele>
        <time>2016-11-08T13:33:05.999Z</time>
      </trkpt>
      <trkpt lat="43.38723" lon="5.50156">
        <ele>486.31</ele>
        <time>2016-11-08T13:33:14.999Z</time>
      </trkpt>
      <trkpt lat="43.38719" lon="5.50145">
        <ele>486.07</ele>
        <time>2016-11-08T13:33:23.999Z</time>
      </trkpt>
      <trkpt lat="43.38716" lon="5.50132">
        <ele>485.84</ele>
        <time>2016-11-08T13:33:32.999Z</time>
      </trkpt>
      <trkpt lat="43.38713" lon="5.5012">
        <ele>485.51</ele>
        <time>2016-11-08T13:33:47.999Z</time>
      </trkpt>
      <trkpt lat="43.38707" lon="5.5011">
        <ele>485.16</ele>
        <time>2016-11-08T13:34:06.999Z</time>
      </trkpt>
      <trkpt lat="43.387" lon="5.501">
        <ele>484.94</ele>
        <time>2016-11-08T13:34:17.999Z</time>
      </trkpt>
      <trkpt lat="43.38692" lon="5.50093">
        <ele>484.76</ele>
        <time>2016-11-08T13:34:27.999Z</time>
      </trkpt>
      <trkpt lat="43.38684" lon="5.50085">
        <ele>484.55</ele>
        <time>2016-11-08T13:34:39.999Z</time>
      </trkpt>
      <trkpt lat="43.38676" lon="5.50077">
        <ele>484.3</ele>
        <time>2016-11-08T13:34:56.999Z</time>
      </trkpt>
      <trkpt lat="43.38668" lon="5.5007">
        <ele>484.13</ele>
        <time>2016-11-08T13:35:08.999Z</time>
      </trkpt>
      <trkpt lat="43.3866" lon="5.50065">
        <ele>483.97</ele>
        <time>2016-11-08T13:35:19.999Z</time>
      </trkpt>
      <trkpt lat="43.38651" lon="5.50062">
        <ele>483.8</ele>
        <time>2016-11-08T13:35:31.999Z</time>
      </trkpt>
      <trkpt lat="43.38641" lon="5.5006">
        <ele>483.65</ele>
        <time>2016-11-08T13:35:44.999Z</time>
      </trkpt>
      <trkpt lat="43.38632" lon="5.50059">
        <ele>483.55</ele>
        <time>2016-11-08T13:35:53.999Z</time>
      </trkpt>
      <trkpt lat="43.38622" lon="5.50057">
        <ele>483.43</ele>
        <time>2016-11-08T13:36:03.999Z</time>
      </trkpt>
      <trkpt lat="43.38613" lon="5.5006">
        <ele>483.33</ele>
        <time>2016-11-08T13:36:14.999Z</time>
      </trkpt>
      <trkpt lat="43.38604" lon="5.50063">
        <ele>483.24</ele>
        <time>2016-11-08T13:36:23.999Z</time>
      </trkpt>
      <trkpt lat="43.38596" lon="5.50067">
        <ele>483.18</ele>
        <time>2016-11-08T13:36:30.999Z</time>
      </trkpt>
      <trkpt lat="43.38587" lon="5.50072">
        <ele>483.09</ele>
        <time>2016-11-08T13:36:39.999Z</time>
      </trkpt>
      <trkpt lat="43.38578" lon="5.50074">
        <ele>482.94</ele>
        <time>2016-11-08T13:36:51.999Z</time>
      </trkpt>
      <trkpt lat="43.38568" lon="5.50077">
        <ele>482.8</ele>
        <time>2016-11-08T13:37:02.999Z</time>
      </trkpt>
      <trkpt lat="43.38562" lon="5.50087">
        <ele>482.63</ele>
        <time>2016-11-08T13:37:13.999Z</time>
      </trkpt>
      <trkpt lat="43.38556" lon="5.50097">
        <ele>482.46</ele>
        <time>2016-11-08T13:37:24.999Z</time>
      </trkpt>
      <trkpt lat="43.38548" lon="5.50106">
        <ele>482.27</ele>
        <time>2016-11-08T13:37:36.999Z</time>
      </trkpt>
      <trkpt lat="43.38541" lon="5.50113">
        <ele>482.09</ele>
        <time>2016-11-08T13:37:46.999Z</time>
      </trkpt>
      <trkpt lat="43.38532" lon="5.5012">
        <ele>481.93</ele>
        <time>2016-11-08T13:37:54.999Z</time>
      </trkpt>
      <trkpt lat="43.38524" lon="5.50127">
        <ele>481.73</ele>
        <time>2016-11-08T13:38:03.999Z</time>
      </trkpt>
      <trkpt lat="43.38515" lon="5.50133">
        <ele>481.53</ele>
        <time>2016-11-08T13:38:11.999Z</time>
      </trkpt>
      <trkpt lat="43.38506" lon="5.50135">
        <ele>481.18</ele>
        <time>2016-11-08T13:38:23.999Z</time>
      </trkpt>
      <trkpt lat="43.38496" lon="5.50137">
        <ele>480.82</ele>
        <time>2016-11-08T13:38:35.999Z</time>
      </trkpt>
      <trkpt lat="43.38488" lon="5.50142">
        <ele>480.59</ele>
        <time>2016-11-08T13:38:43.999Z</time>
      </trkpt>
      <trkpt lat="43.38478" lon="5.50145">
        <ele>480.2</ele>
        <time>2016-11-08T13:38:54.999Z</time>
      </trkpt>
      <trkpt lat="43.38468" lon="5.50148">
        <ele>479.82</ele>
        <time>2016-11-08T13:39:03.999Z</time>
      </trkpt>
      <trkpt lat="43.38459" lon="5.50151">
        <ele>479.3</ele>
        <time>2016-11-08T13:39:14.999Z</time>
      </trkpt>
      <trkpt lat="43.3845" lon="5.50152">
        <ele>478.9</ele>
        <time>2016-11-08T13:39:22.999Z</time>
      </trkpt>
      <trkpt lat="43.3844" lon="5.50154">
        <ele>478.5</ele>
        <time>2016-11-08T13:39:29.999Z</time>
      </trkpt>
      <trkpt lat="43.3843" lon="5.5015">
        <ele>477.9</ele>
        <time>2016-11-08T13:39:38.999Z</time>
      </trkpt>
      <trkpt lat="43.38421" lon="5.50149">
        <ele>477.17</ele>
        <time>2016-11-08T13:39:48.999Z</time>
      </trkpt>
      <trkpt lat="43.38412" lon="5.50151">
        <ele>476.48</ele>
        <time>2016-11-08T13:39:57.999Z</time>
      </trkpt>
      <trkpt lat="43.38405" lon="5.50159">
        <ele>475.66</ele>
        <time>2016-11-08T13:40:08.999Z</time>
      </trkpt>
      <trkpt lat="43.38397" lon="5.50165">
        <ele>474.84</ele>
        <time>2016-11-08T13:40:19.999Z</time>
      </trkpt>
      <trkpt lat="43.38387" lon="5.5017">
        <ele>474.31</ele>
        <time>2016-11-08T13:40:26.999Z</time>
      </trkpt>
      <trkpt lat="43.38379" lon="5.50174">
        <ele>473.47</ele>
        <time>2016-11-08T13:40:38.999Z</time>
      </trkpt>
      <trkpt lat="43.38369" lon="5.50179">
        <ele>472.89</ele>
        <time>2016-11-08T13:40:47.999Z</time>
      </trkpt>
      <trkpt lat="43.38361" lon="5.50184">
        <ele>472.19</ele>
        <time>2016-11-08T13:40:57.999Z</time>
      </trkpt>
      <trkpt lat="43.38352" lon="5.50185">
        <ele>471.15</ele>
        <time>2016-11-08T13:41:09.999Z</time>
      </trkpt>
      <trkpt lat="43.38343" lon="5.50185">
        <ele>470.44</ele>
        <time>2016-11-08T13:41:17.999Z</time>
      </trkpt>
      <trkpt lat="43.38334" lon="5.50182">
        <ele>469.56</ele>
        <time>2016-11-08T13:41:27.999Z</time>
      </trkpt>
      <trkpt lat="43.38324" lon="5.50181">
        <ele>468.92</ele>
        <time>2016-11-08T13:41:35.999Z</time>
      </trkpt>
      <trkpt lat="43.38316" lon="5.50176">
        <ele>468.09</ele>
        <time>2016-11-08T13:41:46.999Z</time>
      </trkpt>
      <trkpt lat="43.38306" lon="5.50171">
        <ele>467.54</ele>
        <time>2016-11-08T13:41:54.999Z</time>
      </trkpt>
      <trkpt lat="43.38298" lon="5.50167">
        <ele>466.88</ele>
        <time>2016-11-08T13:42:04.999Z</time>
      </trkpt>
      <trkpt lat="43.38289" lon="5.50163">
        <ele>466.03</ele>
        <time>2016-11-08T13:42:18.999Z</time>
      </trkpt>
      <trkpt lat="43.3828" lon="5.50157">
        <ele>465.53</ele>
        <time>2016-11-08T13:42:27.999Z</time>
      </trkpt>
      <trkpt lat="43.38271" lon="5.50157">
        <ele>464.95</ele>
        <time>2016-11-08T13:42:38.999Z</time>
      </trkpt>
      <trkpt lat="43.38261" lon="5.50157">
        <ele>464.37</ele>
        <time>2016-11-08T13:42:49.999Z</time>
      </trkpt>
      <trkpt lat="43.38252" lon="5.50155">
        <ele>464.1</ele>
        <time>2016-11-08T13:42:54.999Z</time>
      </trkpt>
      <trkpt lat="43.38242" lon="5.50153">
        <ele>463.68</ele>
        <time>2016-11-08T13:43:01.999Z</time>
      </trkpt>
      <trkpt lat="43.38232" lon="5.5015">
        <ele>463.15</ele>
        <time>2016-11-08T13:43:10.999Z</time>
      </trkpt>
      <trkpt lat="43.38223" lon="5.50147">
        <ele>462.7</ele>
        <time>2016-11-08T13:43:18.999Z</time>
      </trkpt>
      <trkpt lat="43.38214" lon="5.50141">
        <ele>462.26</ele>
        <time>2016-11-08T13:43:26.999Z</time>
      </trkpt>
      <trkpt lat="43.38205" lon="5.50134">
        <ele>461.74</ele>
        <time>2016-11-08T13:43:36.999Z</time>
      </trkpt>
      <trkpt lat="43.38196" lon="5.50131">
        <ele>461.31</ele>
        <time>2016-11-08T13:43:45.999Z</time>
      </trkpt>
      <trkpt lat="43.38188" lon="5.50124">
        <ele>461.03</ele>
        <time>2016-11-08T13:43:51.999Z</time>
      </trkpt>
      <trkpt lat="43.38181" lon="5.50116">
        <ele>460.69</ele>
        <time>2016-11-08T13:43:59.999Z</time>
      </trkpt>
      <trkpt lat="43.38174" lon="5.50107">
        <ele>460.24</ele>
        <time>2016-11-08T13:44:10.999Z</time>
      </trkpt>
      <trkpt lat="43.38168" lon="5.50096">
        <ele>459.93</ele>
        <time>2016-11-08T13:44:18.999Z</time>
      </trkpt>
      <trkpt lat="43.38163" lon="5.50086">
        <ele>459.6</ele>
        <time>2016-11-08T13:44:26.999Z</time>
      </trkpt>
      <trkpt lat="43.38154" lon="5.50081">
        <ele>459.18</ele>
        <time>2016-11-08T13:44:36.999Z</time>
      </trkpt>
      <trkpt lat="43.38145" lon="5.50076">
        <ele>458.81</ele>
        <time>2016-11-08T13:44:45.999Z</time>
      </trkpt>
      <trkpt lat="43.38136" lon="5.5007">
        <ele>458.44</ele>
        <time>2016-11-08T13:44:55.999Z</time>
      </trkpt>
      <trkpt lat="43.38128" lon="5.50065">
        <ele>458.03</ele>
        <time>2016-11-08T13:45:05.999Z</time>
      </trkpt>
      <trkpt lat="43.38121" lon="5.50057">
        <ele>457.55</ele>
        <time>2016-11-08T13:45:16.999Z</time>
      </trkpt>
      <trkpt lat="43.38114" lon="5.50048">
        <ele>457.09</ele>
        <time>2016-11-08T13:45:26.999Z</time>
      </trkpt>
      <trkpt lat="43.38106" lon="5.50043">
        <ele>456.67</ele>
        <time>2016-11-08T13:45:34.999Z</time>
      </trkpt>
      <trkpt lat="43.38097" lon="5.50037">
        <ele>456.1</ele>
        <time>2016-11-08T13:45:43.999Z</time>
      </trkpt>
      <trkpt lat="43.38088" lon="5.50034">
        <ele>455.53</ele>
        <time>2016-11-08T13:45:51.999Z</time>
      </trkpt>
      <trkpt lat="43.38078" lon="5.50032">
        <ele>454.93</ele>
        <time>2016-11-08T13:45:59.999Z</time>
      </trkpt>
      <trkpt lat="43.38068" lon="5.50032">
        <ele>454.31</ele>
        <time>2016-11-08T13:46:07.999Z</time>
      </trkpt>
      <trkpt lat="43.38059" lon="5.50033">
        <ele>453.68</ele>
        <time>2016-11-08T13:46:15.999Z</time>
      </trkpt>
      <trkpt lat="43.38049" lon="5.50035">
        <ele>453.13</ele>
        <time>2016-11-08T13:46:22.999Z</time>
      </trkpt>
      <trkpt lat="43.38039" lon="5.50038">
        <ele>452.53</ele>
        <time>2016-11-08T13:46:30.999Z</time>
      </trkpt>
      <trkpt lat="43.3803" lon="5.50038">
        <ele>451.9</ele>
        <time>2016-11-08T13:46:39.999Z</time>
      </trkpt>
      <trkpt lat="43.3802" lon="5.50038">
        <ele>451.19</ele>
        <time>2016-11-08T13:46:50.999Z</time>
      </trkpt>
      <trkpt lat="43.38011" lon="5.50039">
        <ele>450.68</ele>
        <time>2016-11-08T13:46:58.999Z</time>
      </trkpt>
      <trkpt lat="43.38002" lon="5.50038">
        <ele>450.11</ele>
        <time>2016-11-08T13:47:07.999Z</time>
      </trkpt>
      <trkpt lat="43.37993" lon="5.50034">
        <ele>449.32</ele>
        <time>2016-11-08T13:47:20.999Z</time>
      </trkpt>
      <trkpt lat="43.37983" lon="5.50032">
        <ele>448.88</ele>
        <time>2016-11-08T13:47:28.999Z</time>
      </trkpt>
      <trkpt lat="43.37974" lon="5.5003">
        <ele>448.45</ele>
        <time>2016-11-08T13:47:40.999Z</time>
      </trkpt>
      <trkpt lat="43.37965" lon="5.50031">
        <ele>447.99</ele>
        <time>2016-11-08T13:47:49.999Z</time>
      </trkpt>
      <trkpt lat="43.37955" lon="5.50031">
        <ele>447.46</ele>
        <time>2016-11-08T13:47:59.999Z</time>
      </trkpt>
      <trkpt lat="43.37946" lon="5.50034">
        <ele>447.02</ele>
        <time>2016-11-08T13:48:08.999Z</time>
      </trkpt>
      <trkpt lat="43.37938" lon="5.5004">
        <ele>446.58</ele>
        <time>2016-11-08T13:48:17.999Z</time>
      </trkpt>
      <trkpt lat="43.37928" lon="5.50044">
        <ele>446.13</ele>
        <time>2016-11-08T13:48:26.999Z</time>
      </trkpt>
      <trkpt lat="43.3792" lon="5.50049">
        <ele>445.55</ele>
        <time>2016-11-08T13:48:37.999Z</time>
      </trkpt>
      <trkpt lat="43.37911" lon="5.50054">
        <ele>445.03</ele>
        <time>2016-11-08T13:48:47.999Z</time>
      </trkpt>
      <trkpt lat="43.37902" lon="5.5006">
        <ele>444.51</ele>
        <time>2016-11-08T13:48:57.999Z</time>
      </trkpt>
      <trkpt lat="43.37894" lon="5.50067">
        <ele>444.03</ele>
        <time>2016-11-08T13:49:07.999Z</time>
      </trkpt>
      <trkpt lat="43.37886" lon="5.50072">
        <ele>443.6</ele>
        <time>2016-11-08T13:49:16.999Z</time>
      </trkpt>
      <trkpt lat="43.37878" lon="5.50079">
        <ele>443.1</ele>
        <time>2016-11-08T13:49:25.999Z</time>
      </trkpt>
      <trkpt lat="43.37869" lon="5.50083">
        <ele>442.47</ele>
        <time>2016-11-08T13:49:36.999Z</time>
      </trkpt>
      <trkpt lat="43.3786" lon="5.50085">
        <ele>441.98</ele>
        <time>2016-11-08T13:49:44.999Z</time>
      </trkpt>
      <trkpt lat="43.37851" lon="5.50092">
        <ele>441.39</ele>
        <time>2016-11-08T13:49:54.999Z</time>
      </trkpt>
      <trkpt lat="43.37843" lon="5.50097">
        <ele>440.79</ele>
        <time>2016-11-08T13:50:05.999Z</time>
      </trkpt>
      <trkpt lat="43.37834" lon="5.50102">
        <ele>440.36</ele>
        <time>2016-11-08T13:50:13.999Z</time>
      </trkpt>
      <trkpt lat="43.37825" lon="5.50106">
        <ele>439.88</ele>
        <time>2016-11-08T13:50:22.999Z</time>
      </trkpt>
      <trkpt lat="43.37817" lon="5.50111">
        <ele>439.42</ele>
        <time>2016-11-08T13:50:30.999Z</time>
      </trkpt>
      <trkpt lat="43.37808" lon="5.50114">
        <ele>438.88</ele>
        <time>2016-11-08T13:50:39.999Z</time>
      </trkpt>
      <trkpt lat="43.37799" lon="5.50118">
        <ele>438.31</ele>
        <time>2016-11-08T13:50:48.999Z</time>
      </trkpt>
      <trkpt lat="43.3779" lon="5.50123">
        <ele>437.72</ele>
        <time>2016-11-08T13:50:57.999Z</time>
      </trkpt>
      <trkpt lat="43.37781" lon="5.50126">
        <ele>437.1</ele>
        <time>2016-11-08T13:51:06.999Z</time>
      </trkpt>
      <trkpt lat="43.37771" lon="5.50127">
        <ele>436.35</ele>
        <time>2016-11-08T13:51:16.999Z</time>
      </trkpt>
      <trkpt lat="43.37762" lon="5.50123">
        <ele>435.45</ele>
        <time>2016-11-08T13:51:28.999Z</time>
      </trkpt>
      <trkpt lat="43.37753" lon="5.50119">
        <ele>434.66</ele>
        <time>2016-11-08T13:51:39.999Z</time>
      </trkpt>
      <trkpt lat="43.37743" lon="5.50119">
        <ele>433.87</ele>
        <time>2016-11-08T13:51:50.999Z</time>
      </trkpt>
      <trkpt lat="43.37735" lon="5.50113">
        <ele>433.14</ele>
        <time>2016-11-08T13:52:00.999Z</time>
      </trkpt>
      <trkpt lat="43.37726" lon="5.50111">
        <ele>432.39</ele>
        <time>2016-11-08T13:52:10.999Z</time>
      </trkpt>
      <trkpt lat="43.37717" lon="5.50109">
        <ele>431.66</ele>
        <time>2016-11-08T13:52:19.999Z</time>
      </trkpt>
      <trkpt lat="43.37708" lon="5.50104">
        <ele>430.71</ele>
        <time>2016-11-08T13:52:29.999Z</time>
      </trkpt>
      <trkpt lat="43.37699" lon="5.50101">
        <ele>429.6</ele>
        <time>2016-11-08T13:52:40.999Z</time>
      </trkpt>
      <trkpt lat="43.37691" lon="5.50094">
        <ele>428.75</ele>
        <time>2016-11-08T13:52:49.999Z</time>
      </trkpt>
      <trkpt lat="43.37681" lon="5.50094">
        <ele>427.8</ele>
        <time>2016-11-08T13:52:59.999Z</time>
      </trkpt>
      <trkpt lat="43.37672" lon="5.50089">
        <ele>427.11</ele>
        <time>2016-11-08T13:53:06.999Z</time>
      </trkpt>
      <trkpt lat="43.37663" lon="5.50088">
        <ele>426.07</ele>
        <time>2016-11-08T13:53:16.999Z</time>
      </trkpt>
      <trkpt lat="43.37654" lon="5.50085">
        <ele>424.45</ele>
        <time>2016-11-08T13:53:30.999Z</time>
      </trkpt>
      <trkpt lat="43.37645" lon="5.50084">
        <ele>422.95</ele>
        <time>2016-11-08T13:53:42.999Z</time>
      </trkpt>
      <trkpt lat="43.37638" lon="5.50075">
        <ele>421.6</ele>
        <time>2016-11-08T13:53:52.999Z</time>
      </trkpt>
      <trkpt lat="43.37629" lon="5.50072">
        <ele>420.39</ele>
        <time>2016-11-08T13:54:01.999Z</time>
      </trkpt>
      <trkpt lat="43.3762" lon="5.50065">
        <ele>419.38</ele>
        <time>2016-11-08T13:54:09.999Z</time>
      </trkpt>
      <trkpt lat="43.37611" lon="5.50061">
        <ele>418.62</ele>
        <time>2016-11-08T13:54:15.999Z</time>
      </trkpt>
      <trkpt lat="43.37602" lon="5.50054">
        <ele>417.52</ele>
        <time>2016-11-08T13:54:23.999Z</time>
      </trkpt>
      <trkpt lat="43.37594" lon="5.50048">
        <ele>416.24</ele>
        <time>2016-11-08T13:54:32.999Z</time>
      </trkpt>
      <trkpt lat="43.3759" lon="5.50036">
        <ele>414.9</ele>
        <time>2016-11-08T13:54:42.999Z</time>
      </trkpt>
      <trkpt lat="43.37583" lon="5.50025">
        <ele>413.76</ele>
        <time>2016-11-08T13:54:51.999Z</time>
      </trkpt>
      <trkpt lat="43.37576" lon="5.50017">
        <ele>412.74</ele>
        <time>2016-11-08T13:55:00.999Z</time>
      </trkpt>
      <trkpt lat="43.37569" lon="5.50007">
        <ele>411.72</ele>
        <time>2016-11-08T13:55:10.999Z</time>
      </trkpt>
      <trkpt lat="43.37563" lon="5.49997">
        <ele>410.9</ele>
        <time>2016-11-08T13:55:19.999Z</time>
      </trkpt>
      <trkpt lat="43.37558" lon="5.49986">
        <ele>410.19</ele>
        <time>2016-11-08T13:55:28.999Z</time>
      </trkpt>
      <trkpt lat="43.37553" lon="5.49975">
        <ele>409.44</ele>
        <time>2016-11-08T13:55:39.999Z</time>
      </trkpt>
      <trkpt lat="43.37545" lon="5.49966">
        <ele>408.86</ele>
        <time>2016-11-08T13:55:48.999Z</time>
      </trkpt>
      <trkpt lat="43.37539" lon="5.49956">
        <ele>408.2</ele>
        <time>2016-11-08T13:55:58.999Z</time>
      </trkpt>
      <trkpt lat="43.37534" lon="5.49944">
        <ele>407.55</ele>
        <time>2016-11-08T13:56:07.999Z</time>
      </trkpt>
      <trkpt lat="43.37528" lon="5.49934">
        <ele>406.94</ele>
        <time>2016-11-08T13:56:16.999Z</time>
      </trkpt>
      <trkpt lat="43.3752" lon="5.49927">
        <ele>406.34</ele>
        <time>2016-11-08T13:56:26.999Z</time>
      </trkpt>
      <trkpt lat="43.37511" lon="5.49921">
        <ele>405.77</ele>
        <time>2016-11-08T13:56:36.999Z</time>
      </trkpt>
      <trkpt lat="43.37503" lon="5.49913">
        <ele>405.27</ele>
        <time>2016-11-08T13:56:45.999Z</time>
      </trkpt>
      <trkpt lat="43.37496" lon="5.49905">
        <ele>404.85</ele>
        <time>2016-11-08T13:56:53.999Z</time>
      </trkpt>
      <trkpt lat="43.37489" lon="5.49898">
        <ele>404.14</ele>
        <time>2016-11-08T13:57:07.999Z</time>
      </trkpt>
      <trkpt lat="43.37479" lon="5.49896">
        <ele>403.41</ele>
        <time>2016-11-08T13:57:21.999Z</time>
      </trkpt>
      <trkpt lat="43.37471" lon="5.49895">
        <ele>403.1</ele>
        <time>2016-11-08T13:57:27.999Z</time>
      </trkpt>
      <trkpt lat="43.37461" lon="5.49897">
        <ele>402.64</ele>
        <time>2016-11-08T13:57:36.999Z</time>
      </trkpt>
      <trkpt lat="43.37452" lon="5.49893">
        <ele>401.92</ele>
        <time>2016-11-08T13:58:07.999Z</time>
      </trkpt>
      <trkpt lat="43.37442" lon="5.49892">
        <ele>401.45</ele>
        <time>2016-11-08T13:58:19.999Z</time>
      </trkpt>
      <trkpt lat="43.37433" lon="5.49889">
        <ele>401.06</ele>
        <time>2016-11-08T13:58:28.999Z</time>
      </trkpt>
      <trkpt lat="43.37424" lon="5.49889">
        <ele>400.74</ele>
        <time>2016-11-08T13:58:36.999Z</time>
      </trkpt>
      <trkpt lat="43.37414" lon="5.49888">
        <ele>400.43</ele>
        <time>2016-11-08T13:58:45.999Z</time>
      </trkpt>
      <trkpt lat="43.37406" lon="5.49882">
        <ele>400.13</ele>
        <time>2016-11-08T13:58:55.999Z</time>
      </trkpt>
      <trkpt lat="43.37397" lon="5.49878">
        <ele>399.83</ele>
        <time>2016-11-08T13:59:05.999Z</time>
      </trkpt>
      <trkpt lat="43.37388" lon="5.49873">
        <ele>399.5</ele>
        <time>2016-11-08T13:59:16.999Z</time>
      </trkpt>
      <trkpt lat="43.37379" lon="5.49865">
        <ele>399.26</ele>
        <time>2016-11-08T13:59:24.999Z</time>
      </trkpt>
      <trkpt lat="43.37371" lon="5.49859">
        <ele>398.99</ele>
        <time>2016-11-08T13:59:34.999Z</time>
      </trkpt>
      <trkpt lat="43.37364" lon="5.4985">
        <ele>398.48</ele>
        <time>2016-11-08T13:59:50.999Z</time>
      </trkpt>
      <trkpt lat="43.37354" lon="5.49847">
        <ele>398.08</ele>
        <time>2016-11-08T14:00:01.999Z</time>
      </trkpt>
      <trkpt lat="43.37346" lon="5.49845">
        <ele>397.75</ele>
        <time>2016-11-08T14:00:11.999Z</time>
      </trkpt>
      <trkpt lat="43.37336" lon="5.4984">
        <ele>397.32</ele>
        <time>2016-11-08T14:00:25.999Z</time>
      </trkpt>
      <trkpt lat="43.37329" lon="5.49832">
        <ele>397.07</ele>
        <time>2016-11-08T14:00:32.999Z</time>
      </trkpt>
      <trkpt lat="43.37319" lon="5.4983">
        <ele>396.68</ele>
        <time>2016-11-08T14:00:43.999Z</time>
      </trkpt>
      <trkpt lat="43.37311" lon="5.49824">
        <ele>396.42</ele>
        <time>2016-11-08T14:00:50.999Z</time>
      </trkpt>
      <trkpt lat="43.37302" lon="5.49822">
        <ele>393.27</ele>
        <time>2016-11-08T14:04:53.999Z</time>
      </trkpt>
      <trkpt lat="43.37303" lon="5.49809">
        <ele>390.75</ele>
        <time>2016-11-08T14:07:37.999Z</time>
      </trkpt>
      <trkpt lat="43.37294" lon="5.49813">
        <ele>389.65</ele>
        <time>2016-11-08T14:07:57.999Z</time>
      </trkpt>
      <trkpt lat="43.37285" lon="5.49817">
        <ele>389.23</ele>
        <time>2016-11-08T14:08:04.999Z</time>
      </trkpt>
      <trkpt lat="43.37275" lon="5.49817">
        <ele>388.7</ele>
        <time>2016-11-08T14:08:14.999Z</time>
      </trkpt>
      <trkpt lat="43.37266" lon="5.4982">
        <ele>388.13</ele>
        <time>2016-11-08T14:08:27.999Z</time>
      </trkpt>
      <trkpt lat="43.37257" lon="5.49823">
        <ele>387.82</ele>
        <time>2016-11-08T14:08:35.999Z</time>
      </trkpt>
      <trkpt lat="43.37248" lon="5.49826">
        <ele>387.52</ele>
        <time>2016-11-08T14:08:44.999Z</time>
      </trkpt>
      <trkpt lat="43.37239" lon="5.49827">
        <ele>387.28</ele>
        <time>2016-11-08T14:08:52.999Z</time>
      </trkpt>
      <trkpt lat="43.3723" lon="5.49829">
        <ele>387.08</ele>
        <time>2016-11-08T14:08:59.999Z</time>
      </trkpt>
      <trkpt lat="43.37219" lon="5.4983">
        <ele>386.85</ele>
        <time>2016-11-08T14:09:07.999Z</time>
      </trkpt>
      <trkpt lat="43.37209" lon="5.49832">
        <ele>386.63</ele>
        <time>2016-11-08T14:09:15.999Z</time>
      </trkpt>
      <trkpt lat="43.37201" lon="5.49838">
        <ele>386.4</ele>
        <time>2016-11-08T14:09:24.999Z</time>
      </trkpt>
      <trkpt lat="43.37194" lon="5.49846">
        <ele>386.17</ele>
        <time>2016-11-08T14:09:34.999Z</time>
      </trkpt>
      <trkpt lat="43.37186" lon="5.49852">
        <ele>385.99</ele>
        <time>2016-11-08T14:09:42.999Z</time>
      </trkpt>
      <trkpt lat="43.37177" lon="5.49856">
        <ele>385.81</ele>
        <time>2016-11-08T14:09:52.000Z</time>
      </trkpt>
      <trkpt lat="43.37167" lon="5.49858">
        <ele>385.59</ele>
        <time>2016-11-08T14:10:03.000Z</time>
      </trkpt>
      <trkpt lat="43.37157" lon="5.49856">
        <ele>385.41</ele>
        <time>2016-11-08T14:10:12.000Z</time>
      </trkpt>
      <trkpt lat="43.37148" lon="5.49852">
        <ele>385.18</ele>
        <time>2016-11-08T14:10:22.000Z</time>
      </trkpt>
      <trkpt lat="43.37141" lon="5.49844">
        <ele>384.98</ele>
        <time>2016-11-08T14:10:30.000Z</time>
      </trkpt>
      <trkpt lat="43.37133" lon="5.49838">
        <ele>384.77</ele>
        <time>2016-11-08T14:10:39.000Z</time>
      </trkpt>
      <trkpt lat="43.37125" lon="5.4983">
        <ele>384.52</ele>
        <time>2016-11-08T14:10:50.000Z</time>
      </trkpt>
      <trkpt lat="43.37117" lon="5.49823">
        <ele>384.32</ele>
        <time>2016-11-08T14:10:59.000Z</time>
      </trkpt>
      <trkpt lat="43.37109" lon="5.49816">
        <ele>384.13</ele>
        <time>2016-11-08T14:11:07.000Z</time>
      </trkpt>
      <trkpt lat="43.37102" lon="5.49807">
        <ele>383.89</ele>
        <time>2016-11-08T14:11:18.000Z</time>
      </trkpt>
      <trkpt lat="43.37094" lon="5.49802">
        <ele>383.56</ele>
        <time>2016-11-08T14:11:31.000Z</time>
      </trkpt>
      <trkpt lat="43.37084" lon="5.49804">
        <ele>383.35</ele>
        <time>2016-11-08T14:11:38.000Z</time>
      </trkpt>
      <trkpt lat="43.37075" lon="5.49806">
        <ele>383.18</ele>
        <time>2016-11-08T14:11:44.000Z</time>
      </trkpt>
      <trkpt lat="43.37066" lon="5.49811">
        <ele>382.92</ele>
        <time>2016-11-08T14:11:54.000Z</time>
      </trkpt>
      <trkpt lat="43.37058" lon="5.49817">
        <ele>382.72</ele>
        <time>2016-11-08T14:12:02.000Z</time>
      </trkpt>
      <trkpt lat="43.37051" lon="5.49825">
        <ele>382.54</ele>
        <time>2016-11-08T14:12:09.000Z</time>
      </trkpt>
      <trkpt lat="43.37044" lon="5.49833">
        <ele>382.3</ele>
        <time>2016-11-08T14:12:19.000Z</time>
      </trkpt>
      <trkpt lat="43.37038" lon="5.49844">
        <ele>382.04</ele>
        <time>2016-11-08T14:12:31.000Z</time>
      </trkpt>
      <trkpt lat="43.3703" lon="5.49852">
        <ele>381.87</ele>
        <time>2016-11-08T14:12:40.000Z</time>
      </trkpt>
      <trkpt lat="43.37022" lon="5.49859">
        <ele>381.68</ele>
        <time>2016-11-08T14:12:50.000Z</time>
      </trkpt>
      <trkpt lat="43.37014" lon="5.49865">
        <ele>381.54</ele>
        <time>2016-11-08T14:12:58.000Z</time>
      </trkpt>
      <trkpt lat="43.37005" lon="5.49869">
        <ele>381.42</ele>
        <time>2016-11-08T14:13:05.000Z</time>
      </trkpt>
      <trkpt lat="43.36997" lon="5.49874">
        <ele>381.24</ele>
        <time>2016-11-08T14:13:15.000Z</time>
      </trkpt>
      <trkpt lat="43.36988" lon="5.49881">
        <ele>380.98</ele>
        <time>2016-11-08T14:13:30.000Z</time>
      </trkpt>
      <trkpt lat="43.36979" lon="5.49879">
        <ele>380.74</ele>
        <time>2016-11-08T14:13:44.000Z</time>
      </trkpt>
      <trkpt lat="43.36974" lon="5.49867">
        <ele>380.61</ele>
        <time>2016-11-08T14:13:52.000Z</time>
      </trkpt>
      <trkpt lat="43.36968" lon="5.49857">
        <ele>380.38</ele>
        <time>2016-11-08T14:14:04.000Z</time>
      </trkpt>
      <trkpt lat="43.36961" lon="5.49849">
        <ele>380.23</ele>
        <time>2016-11-08T14:14:12.000Z</time>
      </trkpt>
      <trkpt lat="43.36949" lon="5.49846">
        <ele>380.03</ele>
        <time>2016-11-08T14:14:23.000Z</time>
      </trkpt>
      <trkpt lat="43.3694" lon="5.49848">
        <ele>379.88</ele>
        <time>2016-11-08T14:14:31.000Z</time>
      </trkpt>
      <trkpt lat="43.36931" lon="5.4985">
        <ele>379.7</ele>
        <time>2016-11-08T14:14:40.000Z</time>
      </trkpt>
      <trkpt lat="43.3692" lon="5.49852">
        <ele>379.46</ele>
        <time>2016-11-08T14:14:51.000Z</time>
      </trkpt>
      <trkpt lat="43.36911" lon="5.49855">
        <ele>379.12</ele>
        <time>2016-11-08T14:15:02.000Z</time>
      </trkpt>
      <trkpt lat="43.36899" lon="5.49859">
        <ele>378.73</ele>
        <time>2016-11-08T14:15:13.000Z</time>
      </trkpt>
      <trkpt lat="43.36889" lon="5.49861">
        <ele>378.49</ele>
        <time>2016-11-08T14:15:19.000Z</time>
      </trkpt>
      <trkpt lat="43.3688" lon="5.49863">
        <ele>378.07</ele>
        <time>2016-11-08T14:15:28.000Z</time>
      </trkpt>
      <trkpt lat="43.3687" lon="5.49864">
        <ele>377.59</ele>
        <time>2016-11-08T14:15:36.000Z</time>
      </trkpt>
      <trkpt lat="43.36861" lon="5.49868">
        <ele>377.23</ele>
        <time>2016-11-08T14:15:42.000Z</time>
      </trkpt>
      <trkpt lat="43.36852" lon="5.49872">
        <ele>376.76</ele>
        <time>2016-11-08T14:15:50.000Z</time>
      </trkpt>
      <trkpt lat="43.36845" lon="5.49881">
        <ele>376.24</ele>
        <time>2016-11-08T14:15:59.000Z</time>
      </trkpt>
      <trkpt lat="43.36837" lon="5.49888">
        <ele>375.7</ele>
        <time>2016-11-08T14:16:10.000Z</time>
      </trkpt>
      <trkpt lat="43.36829" lon="5.499">
        <ele>375.23</ele>
        <time>2016-11-08T14:16:20.000Z</time>
      </trkpt>
      <trkpt lat="43.36822" lon="5.49908">
        <ele>374.79</ele>
        <time>2016-11-08T14:16:27.000Z</time>
      </trkpt>
      <trkpt lat="43.36815" lon="5.49917">
        <ele>374.36</ele>
        <time>2016-11-08T14:16:34.000Z</time>
      </trkpt>
      <trkpt lat="43.36807" lon="5.49924">
        <ele>373.84</ele>
        <time>2016-11-08T14:16:43.000Z</time>
      </trkpt>
      <trkpt lat="43.36799" lon="5.49932">
        <ele>373.33</ele>
        <time>2016-11-08T14:16:52.000Z</time>
      </trkpt>
      <trkpt lat="43.36792" lon="5.4994">
        <ele>372.85</ele>
        <time>2016-11-08T14:17:00.000Z</time>
      </trkpt>
      <trkpt lat="43.36784" lon="5.49949">
        <ele>372.42</ele>
        <time>2016-11-08T14:17:08.000Z</time>
      </trkpt>
      <trkpt lat="43.36781" lon="5.49962">
        <ele>372.01</ele>
        <time>2016-11-08T14:17:17.000Z</time>
      </trkpt>
      <trkpt lat="43.36784" lon="5.49974">
        <ele>371.53</ele>
        <time>2016-11-08T14:17:27.000Z</time>
      </trkpt>
      <trkpt lat="43.36793" lon="5.49978">
        <ele>370.97</ele>
        <time>2016-11-08T14:17:37.000Z</time>
      </trkpt>
      <trkpt lat="43.36802" lon="5.49974">
        <ele>370.52</ele>
        <time>2016-11-08T14:17:45.000Z</time>
      </trkpt>
      <trkpt lat="43.36811" lon="5.49967">
        <ele>370.09</ele>
        <time>2016-11-08T14:17:52.000Z</time>
      </trkpt>
      <trkpt lat="43.3682" lon="5.49963">
        <ele>369.37</ele>
        <time>2016-11-08T14:18:00.000Z</time>
      </trkpt>
      <trkpt lat="43.36829" lon="5.49956">
        <ele>368.34</ele>
        <time>2016-11-08T14:18:08.000Z</time>
      </trkpt>
      <trkpt lat="43.36838" lon="5.4995">
        <ele>367.16</ele>
        <time>2016-11-08T14:18:16.000Z</time>
      </trkpt>
      <trkpt lat="43.36847" lon="5.49945">
        <ele>365.92</ele>
        <time>2016-11-08T14:18:24.000Z</time>
      </trkpt>
      <trkpt lat="43.36855" lon="5.49938">
        <ele>364.64</ele>
        <time>2016-11-08T14:18:32.000Z</time>
      </trkpt>
      <trkpt lat="43.36863" lon="5.49932">
        <ele>363.24</ele>
        <time>2016-11-08T14:18:40.000Z</time>
      </trkpt>
      <trkpt lat="43.36873" lon="5.49929">
        <ele>361.85</ele>
        <time>2016-11-08T14:18:48.000Z</time>
      </trkpt>
      <trkpt lat="43.36882" lon="5.49928">
        <ele>360.07</ele>
        <time>2016-11-08T14:18:59.000Z</time>
      </trkpt>
      <trkpt lat="43.3689" lon="5.49935">
        <ele>358.57</ele>
        <time>2016-11-08T14:19:08.000Z</time>
      </trkpt>
      <trkpt lat="43.36898" lon="5.49942">
        <ele>355.43</ele>
        <time>2016-11-08T14:19:28.000Z</time>
      </trkpt>
      <trkpt lat="43.36902" lon="5.49953">
        <ele>354.04</ele>
        <time>2016-11-08T14:19:41.000Z</time>
      </trkpt>
      <trkpt lat="43.36898" lon="5.49964">
        <ele>351.53</ele>
        <time>2016-11-08T14:19:58.000Z</time>
      </trkpt>
      <trkpt lat="43.369" lon="5.49977">
        <ele>350.24</ele>
        <time>2016-11-08T14:20:08.000Z</time>
      </trkpt>
      <trkpt lat="43.36899" lon="5.4999">
        <ele>348.78</ele>
        <time>2016-11-08T14:20:20.000Z</time>
      </trkpt>
      <trkpt lat="43.36899" lon="5.50003">
        <ele>347.12</ele>
        <time>2016-11-08T14:20:36.000Z</time>
      </trkpt>
      <trkpt lat="43.36902" lon="5.50015">
        <ele>346.31</ele>
        <time>2016-11-08T14:20:44.000Z</time>
      </trkpt>
      <trkpt lat="43.36908" lon="5.50025">
        <ele>345.35</ele>
        <time>2016-11-08T14:20:54.000Z</time>
      </trkpt>
      <trkpt lat="43.36918" lon="5.50026">
        <ele>344.42</ele>
        <time>2016-11-08T14:21:04.000Z</time>
      </trkpt>
      <trkpt lat="43.36927" lon="5.50024">
        <ele>343.69</ele>
        <time>2016-11-08T14:21:12.000Z</time>
      </trkpt>
      <trkpt lat="43.36936" lon="5.50024">
        <ele>342.95</ele>
        <time>2016-11-08T14:21:20.000Z</time>
      </trkpt>
      <trkpt lat="43.36945" lon="5.50024">
        <ele>342.52</ele>
        <time>2016-11-08T14:21:25.000Z</time>
      </trkpt>
      <trkpt lat="43.36954" lon="5.50023">
        <ele>341.95</ele>
        <time>2016-11-08T14:21:32.000Z</time>
      </trkpt>
      <trkpt lat="43.36964" lon="5.50026">
        <ele>341.34</ele>
        <time>2016-11-08T14:21:40.000Z</time>
      </trkpt>
      <trkpt lat="43.36974" lon="5.50029">
        <ele>340.71</ele>
        <time>2016-11-08T14:21:49.000Z</time>
      </trkpt>
      <trkpt lat="43.36983" lon="5.50029">
        <ele>340.09</ele>
        <time>2016-11-08T14:21:58.000Z</time>
      </trkpt>
      <trkpt lat="43.36993" lon="5.5003">
        <ele>339.51</ele>
        <time>2016-11-08T14:22:07.000Z</time>
      </trkpt>
      <trkpt lat="43.37001" lon="5.50034">
        <ele>338.96</ele>
        <time>2016-11-08T14:22:16.000Z</time>
      </trkpt>
      <trkpt lat="43.37011" lon="5.50037">
        <ele>338.23</ele>
        <time>2016-11-08T14:22:29.000Z</time>
      </trkpt>
      <trkpt lat="43.37021" lon="5.50039">
        <ele>337.81</ele>
        <time>2016-11-08T14:22:37.000Z</time>
      </trkpt>
      <trkpt lat="43.3703" lon="5.50041">
        <ele>337.12</ele>
        <time>2016-11-08T14:22:51.000Z</time>
      </trkpt>
      <trkpt lat="43.3704" lon="5.50045">
        <ele>336.77</ele>
        <time>2016-11-08T14:22:58.000Z</time>
      </trkpt>
      <trkpt lat="43.37045" lon="5.50055">
        <ele>336.47</ele>
        <time>2016-11-08T14:23:04.000Z</time>
      </trkpt>
      <trkpt lat="43.37048" lon="5.50068">
        <ele>336.21</ele>
        <time>2016-11-08T14:23:09.000Z</time>
      </trkpt>
      <trkpt lat="43.3705" lon="5.50081">
        <ele>335.81</ele>
        <time>2016-11-08T14:23:16.000Z</time>
      </trkpt>
      <trkpt lat="43.37058" lon="5.50085">
        <ele>334.16</ele>
        <time>2016-11-08T14:23:41.000Z</time>
      </trkpt>
      <trkpt lat="43.37067" lon="5.50084">
        <ele>333.36</ele>
        <time>2016-11-08T14:23:52.000Z</time>
      </trkpt>
      <trkpt lat="43.37076" lon="5.5008">
        <ele>332.68</ele>
        <time>2016-11-08T14:24:02.000Z</time>
      </trkpt>
      <trkpt lat="43.37085" lon="5.50074">
        <ele>331.9</ele>
        <time>2016-11-08T14:24:14.000Z</time>
      </trkpt>
      <trkpt lat="43.37095" lon="5.50069">
        <ele>331.13</ele>
        <time>2016-11-08T14:24:27.000Z</time>
      </trkpt>
      <trkpt lat="43.37104" lon="5.50063">
        <ele>330.76</ele>
        <time>2016-11-08T14:24:34.000Z</time>
      </trkpt>
      <trkpt lat="43.37114" lon="5.5006">
        <ele>330.23</ele>
        <time>2016-11-08T14:24:44.000Z</time>
      </trkpt>
      <trkpt lat="43.37124" lon="5.50059">
        <ele>329.74</ele>
        <time>2016-11-08T14:24:53.000Z</time>
      </trkpt>
      <trkpt lat="43.37133" lon="5.50058">
        <ele>329.33</ele>
        <time>2016-11-08T14:25:01.000Z</time>
      </trkpt>
      <trkpt lat="43.37143" lon="5.5006">
        <ele>328.82</ele>
        <time>2016-11-08T14:25:11.000Z</time>
      </trkpt>
      <trkpt lat="43.37151" lon="5.50065">
        <ele>328.36</ele>
        <time>2016-11-08T14:25:20.000Z</time>
      </trkpt>
      <trkpt lat="43.37159" lon="5.50072">
        <ele>327.99</ele>
        <time>2016-11-08T14:25:27.000Z</time>
      </trkpt>
      <trkpt lat="43.37166" lon="5.50081">
        <ele>327.6</ele>
        <time>2016-11-08T14:25:34.000Z</time>
      </trkpt>
      <trkpt lat="43.37174" lon="5.50087">
        <ele>327.15</ele>
        <time>2016-11-08T14:25:41.000Z</time>
      </trkpt>
      <trkpt lat="43.3718" lon="5.50097">
        <ele>326.32</ele>
        <time>2016-11-08T14:25:52.000Z</time>
      </trkpt>
      <trkpt lat="43.37186" lon="5.50107">
        <ele>325.51</ele>
        <time>2016-11-08T14:26:02.000Z</time>
      </trkpt>
      <trkpt lat="43.37194" lon="5.50115">
        <ele>324.65</ele>
        <time>2016-11-08T14:26:13.000Z</time>
      </trkpt>
      <trkpt lat="43.37202" lon="5.50121">
        <ele>323.78</ele>
        <time>2016-11-08T14:26:24.000Z</time>
      </trkpt>
      <trkpt lat="43.37211" lon="5.50121">
        <ele>322.51</ele>
        <time>2016-11-08T14:26:40.000Z</time>
      </trkpt>
      <trkpt lat="43.37222" lon="5.50123">
        <ele>321.67</ele>
        <time>2016-11-08T14:26:52.000Z</time>
      </trkpt>
    </trkseg>
  </trk>
</gpx>